<?xml version="1.0" encoding="UTF-8" standalone="no" ?>
<gpx xmlns="http://www.topografix.com/GPX/1/1" xmlns:xsi="http://www.w3.org/2001/XMLSchema-instance" xsi:schemaLocation="http://www.topografix.com/GPX/1/1 http://www.topografix.com/GPX/1/1/gpx.xsd" version="1.1" creator="VisuGPX - https://www.visugpx.com">
  <metadata>
    <name>CUSSIGNY 2020-03-12-01</name>
    <desc><![CDATA[Agréable marche, sans difficulté, entre plaine et forêt.
]]></desc>
  </metadata>
  <trk>
    <name><![CDATA[2020-03-12-01]]></name>
    <trkseg>
      <trkpt lat="47.07802" lon="4.95178">
        <ele>205.1</ele>
        <time>2020-03-12T13:08:33Z</time>
      </trkpt>
      <trkpt lat="47.07802" lon="4.95178">
        <ele>205.1</ele>
        <time>2020-03-12T13:08:34Z</time>
      </trkpt>
      <trkpt lat="47.07804" lon="4.95163">
        <ele>207.2</ele>
        <time>2020-03-12T13:09:12Z</time>
      </trkpt>
      <trkpt lat="47.07806" lon="4.95149">
        <ele>208.3</ele>
        <time>2020-03-12T13:09:19Z</time>
      </trkpt>
      <trkpt lat="47.07808" lon="4.95136">
        <ele>206.7</ele>
        <time>2020-03-12T13:09:27Z</time>
      </trkpt>
      <trkpt lat="47.0781" lon="4.9515">
        <ele>208</ele>
        <time>2020-03-12T13:09:50Z</time>
      </trkpt>
      <trkpt lat="47.07806" lon="4.95163">
        <ele>206.7</ele>
        <time>2020-03-12T13:09:59Z</time>
      </trkpt>
      <trkpt lat="47.07801" lon="4.95175">
        <ele>206.8</ele>
        <time>2020-03-12T13:10:06Z</time>
      </trkpt>
      <trkpt lat="47.07797" lon="4.95189">
        <ele>207.7</ele>
        <time>2020-03-12T13:10:14Z</time>
      </trkpt>
      <trkpt lat="47.07794" lon="4.95201">
        <ele>208.5</ele>
        <time>2020-03-12T13:10:22Z</time>
      </trkpt>
      <trkpt lat="47.07791" lon="4.95214">
        <ele>209</ele>
        <time>2020-03-12T13:10:30Z</time>
      </trkpt>
      <trkpt lat="47.07789" lon="4.95229">
        <ele>210</ele>
        <time>2020-03-12T13:10:39Z</time>
      </trkpt>
      <trkpt lat="47.07792" lon="4.95242">
        <ele>209.5</ele>
        <time>2020-03-12T13:10:47Z</time>
      </trkpt>
      <trkpt lat="47.07796" lon="4.95256">
        <ele>208.8</ele>
        <time>2020-03-12T13:10:56Z</time>
      </trkpt>
      <trkpt lat="47.07801" lon="4.95266">
        <ele>208.7</ele>
        <time>2020-03-12T13:11:05Z</time>
      </trkpt>
      <trkpt lat="47.07809" lon="4.95276">
        <ele>209.5</ele>
        <time>2020-03-12T13:11:14Z</time>
      </trkpt>
      <trkpt lat="47.07816" lon="4.95285">
        <ele>209.3</ele>
        <time>2020-03-12T13:11:24Z</time>
      </trkpt>
      <trkpt lat="47.07823" lon="4.95296">
        <ele>209</ele>
        <time>2020-03-12T13:11:34Z</time>
      </trkpt>
      <trkpt lat="47.07826" lon="4.95308">
        <ele>208.6</ele>
        <time>2020-03-12T13:11:43Z</time>
      </trkpt>
      <trkpt lat="47.07829" lon="4.95323">
        <ele>208</ele>
        <time>2020-03-12T13:11:54Z</time>
      </trkpt>
      <trkpt lat="47.07831" lon="4.95336">
        <ele>208.1</ele>
        <time>2020-03-12T13:12:01Z</time>
      </trkpt>
      <trkpt lat="47.07832" lon="4.9535">
        <ele>207.5</ele>
        <time>2020-03-12T13:12:09Z</time>
      </trkpt>
      <trkpt lat="47.07831" lon="4.95365">
        <ele>207.6</ele>
        <time>2020-03-12T13:12:17Z</time>
      </trkpt>
      <trkpt lat="47.0783" lon="4.95379">
        <ele>207.3</ele>
        <time>2020-03-12T13:12:24Z</time>
      </trkpt>
      <trkpt lat="47.07828" lon="4.95392">
        <ele>207</ele>
        <time>2020-03-12T13:12:31Z</time>
      </trkpt>
      <trkpt lat="47.07825" lon="4.95406">
        <ele>206.5</ele>
        <time>2020-03-12T13:12:37Z</time>
      </trkpt>
      <trkpt lat="47.07822" lon="4.95419">
        <ele>206.2</ele>
        <time>2020-03-12T13:12:43Z</time>
      </trkpt>
      <trkpt lat="47.07815" lon="4.9543">
        <ele>204.6</ele>
        <time>2020-03-12T13:12:50Z</time>
      </trkpt>
      <trkpt lat="47.07808" lon="4.95441">
        <ele>205.3</ele>
        <time>2020-03-12T13:12:58Z</time>
      </trkpt>
      <trkpt lat="47.07802" lon="4.9545">
        <ele>206</ele>
        <time>2020-03-12T13:13:08Z</time>
      </trkpt>
      <trkpt lat="47.07796" lon="4.95461">
        <ele>205.2</ele>
        <time>2020-03-12T13:13:19Z</time>
      </trkpt>
      <trkpt lat="47.07791" lon="4.95472">
        <ele>205.5</ele>
        <time>2020-03-12T13:13:29Z</time>
      </trkpt>
      <trkpt lat="47.07787" lon="4.95485">
        <ele>205.4</ele>
        <time>2020-03-12T13:13:41Z</time>
      </trkpt>
      <trkpt lat="47.07785" lon="4.95498">
        <ele>205.9</ele>
        <time>2020-03-12T13:13:51Z</time>
      </trkpt>
      <trkpt lat="47.07783" lon="4.95512">
        <ele>206.6</ele>
        <time>2020-03-12T13:13:57Z</time>
      </trkpt>
      <trkpt lat="47.07781" lon="4.95526">
        <ele>206.4</ele>
        <time>2020-03-12T13:14:05Z</time>
      </trkpt>
      <trkpt lat="47.07779" lon="4.9554">
        <ele>206.1</ele>
        <time>2020-03-12T13:14:14Z</time>
      </trkpt>
      <trkpt lat="47.07779" lon="4.95554">
        <ele>206.1</ele>
        <time>2020-03-12T13:14:22Z</time>
      </trkpt>
      <trkpt lat="47.07779" lon="4.95568">
        <ele>205.7</ele>
        <time>2020-03-12T13:14:31Z</time>
      </trkpt>
      <trkpt lat="47.07779" lon="4.95581">
        <ele>205.9</ele>
        <time>2020-03-12T13:14:39Z</time>
      </trkpt>
      <trkpt lat="47.07779" lon="4.95594">
        <ele>206</ele>
        <time>2020-03-12T13:14:47Z</time>
      </trkpt>
      <trkpt lat="47.07778" lon="4.95609">
        <ele>206.9</ele>
        <time>2020-03-12T13:14:54Z</time>
      </trkpt>
      <trkpt lat="47.07775" lon="4.95623">
        <ele>207.6</ele>
        <time>2020-03-12T13:15:00Z</time>
      </trkpt>
      <trkpt lat="47.07772" lon="4.95636">
        <ele>208.4</ele>
        <time>2020-03-12T13:15:07Z</time>
      </trkpt>
      <trkpt lat="47.07768" lon="4.9565">
        <ele>208</ele>
        <time>2020-03-12T13:15:15Z</time>
      </trkpt>
      <trkpt lat="47.07763" lon="4.95662">
        <ele>206</ele>
        <time>2020-03-12T13:15:23Z</time>
      </trkpt>
      <trkpt lat="47.07758" lon="4.95674">
        <ele>205.3</ele>
        <time>2020-03-12T13:15:30Z</time>
      </trkpt>
      <trkpt lat="47.07752" lon="4.95685">
        <ele>205.7</ele>
        <time>2020-03-12T13:15:38Z</time>
      </trkpt>
      <trkpt lat="47.07746" lon="4.95696">
        <ele>205.6</ele>
        <time>2020-03-12T13:15:47Z</time>
      </trkpt>
      <trkpt lat="47.0774" lon="4.95707">
        <ele>204.8</ele>
        <time>2020-03-12T13:15:59Z</time>
      </trkpt>
      <trkpt lat="47.07735" lon="4.95719">
        <ele>204.5</ele>
        <time>2020-03-12T13:16:09Z</time>
      </trkpt>
      <trkpt lat="47.07731" lon="4.95732">
        <ele>204.4</ele>
        <time>2020-03-12T13:16:20Z</time>
      </trkpt>
      <trkpt lat="47.07727" lon="4.95745">
        <ele>205.4</ele>
        <time>2020-03-12T13:16:29Z</time>
      </trkpt>
      <trkpt lat="47.07724" lon="4.95758">
        <ele>205.2</ele>
        <time>2020-03-12T13:16:38Z</time>
      </trkpt>
      <trkpt lat="47.07719" lon="4.9577">
        <ele>205.2</ele>
        <time>2020-03-12T13:16:46Z</time>
      </trkpt>
      <trkpt lat="47.07714" lon="4.95782">
        <ele>205.5</ele>
        <time>2020-03-12T13:16:55Z</time>
      </trkpt>
      <trkpt lat="47.07709" lon="4.95796">
        <ele>205.7</ele>
        <time>2020-03-12T13:17:03Z</time>
      </trkpt>
      <trkpt lat="47.07705" lon="4.95808">
        <ele>206.7</ele>
        <time>2020-03-12T13:17:11Z</time>
      </trkpt>
      <trkpt lat="47.07701" lon="4.9582">
        <ele>209.2</ele>
        <time>2020-03-12T13:17:18Z</time>
      </trkpt>
      <trkpt lat="47.07695" lon="4.95833">
        <ele>210.5</ele>
        <time>2020-03-12T13:17:25Z</time>
      </trkpt>
      <trkpt lat="47.0769" lon="4.95846">
        <ele>210.9</ele>
        <time>2020-03-12T13:17:33Z</time>
      </trkpt>
      <trkpt lat="47.07685" lon="4.95858">
        <ele>210.7</ele>
        <time>2020-03-12T13:17:40Z</time>
      </trkpt>
      <trkpt lat="47.0768" lon="4.9587">
        <ele>210.2</ele>
        <time>2020-03-12T13:17:47Z</time>
      </trkpt>
      <trkpt lat="47.07673" lon="4.9588">
        <ele>210.8</ele>
        <time>2020-03-12T13:17:53Z</time>
      </trkpt>
      <trkpt lat="47.07665" lon="4.9589">
        <ele>210.8</ele>
        <time>2020-03-12T13:18:00Z</time>
      </trkpt>
      <trkpt lat="47.07657" lon="4.95897">
        <ele>209.6</ele>
        <time>2020-03-12T13:18:07Z</time>
      </trkpt>
      <trkpt lat="47.07649" lon="4.95904">
        <ele>209.1</ele>
        <time>2020-03-12T13:18:16Z</time>
      </trkpt>
      <trkpt lat="47.07641" lon="4.95912">
        <ele>208.6</ele>
        <time>2020-03-12T13:18:26Z</time>
      </trkpt>
      <trkpt lat="47.07634" lon="4.95921">
        <ele>208.8</ele>
        <time>2020-03-12T13:18:39Z</time>
      </trkpt>
      <trkpt lat="47.07628" lon="4.95932">
        <ele>207.1</ele>
        <time>2020-03-12T13:18:50Z</time>
      </trkpt>
      <trkpt lat="47.07621" lon="4.95943">
        <ele>206.5</ele>
        <time>2020-03-12T13:19:00Z</time>
      </trkpt>
      <trkpt lat="47.07615" lon="4.95954">
        <ele>206.6</ele>
        <time>2020-03-12T13:19:08Z</time>
      </trkpt>
      <trkpt lat="47.07609" lon="4.95964">
        <ele>206.8</ele>
        <time>2020-03-12T13:19:15Z</time>
      </trkpt>
      <trkpt lat="47.07602" lon="4.95973">
        <ele>206.7</ele>
        <time>2020-03-12T13:19:34Z</time>
      </trkpt>
      <trkpt lat="47.07596" lon="4.95983">
        <ele>206.6</ele>
        <time>2020-03-12T13:19:49Z</time>
      </trkpt>
      <trkpt lat="47.07588" lon="4.95992">
        <ele>207.3</ele>
        <time>2020-03-12T13:19:58Z</time>
      </trkpt>
      <trkpt lat="47.0758" lon="4.96">
        <ele>208.1</ele>
        <time>2020-03-12T13:20:07Z</time>
      </trkpt>
      <trkpt lat="47.07571" lon="4.96007">
        <ele>208.2</ele>
        <time>2020-03-12T13:20:14Z</time>
      </trkpt>
      <trkpt lat="47.07563" lon="4.96013">
        <ele>209.2</ele>
        <time>2020-03-12T13:20:23Z</time>
      </trkpt>
      <trkpt lat="47.07554" lon="4.9602">
        <ele>209</ele>
        <time>2020-03-12T13:20:33Z</time>
      </trkpt>
      <trkpt lat="47.07546" lon="4.96026">
        <ele>208.5</ele>
        <time>2020-03-12T13:20:44Z</time>
      </trkpt>
      <trkpt lat="47.07538" lon="4.96033">
        <ele>208.8</ele>
        <time>2020-03-12T13:20:54Z</time>
      </trkpt>
      <trkpt lat="47.07531" lon="4.9604">
        <ele>209.8</ele>
        <time>2020-03-12T13:21:03Z</time>
      </trkpt>
      <trkpt lat="47.07524" lon="4.96051">
        <ele>210.3</ele>
        <time>2020-03-12T13:21:13Z</time>
      </trkpt>
      <trkpt lat="47.07517" lon="4.96062">
        <ele>211.3</ele>
        <time>2020-03-12T13:21:22Z</time>
      </trkpt>
      <trkpt lat="47.07512" lon="4.96072">
        <ele>210.6</ele>
        <time>2020-03-12T13:21:29Z</time>
      </trkpt>
      <trkpt lat="47.07505" lon="4.96082">
        <ele>211.5</ele>
        <time>2020-03-12T13:21:42Z</time>
      </trkpt>
      <trkpt lat="47.07499" lon="4.96094">
        <ele>212.5</ele>
        <time>2020-03-12T13:21:55Z</time>
      </trkpt>
      <trkpt lat="47.07494" lon="4.96106">
        <ele>213</ele>
        <time>2020-03-12T13:22:02Z</time>
      </trkpt>
      <trkpt lat="47.07489" lon="4.96117">
        <ele>213.5</ele>
        <time>2020-03-12T13:22:11Z</time>
      </trkpt>
      <trkpt lat="47.07483" lon="4.96129">
        <ele>212.8</ele>
        <time>2020-03-12T13:22:19Z</time>
      </trkpt>
      <trkpt lat="47.07476" lon="4.9614">
        <ele>212.7</ele>
        <time>2020-03-12T13:22:26Z</time>
      </trkpt>
      <trkpt lat="47.07468" lon="4.96149">
        <ele>211.8</ele>
        <time>2020-03-12T13:22:33Z</time>
      </trkpt>
      <trkpt lat="47.0746" lon="4.96157">
        <ele>212.2</ele>
        <time>2020-03-12T13:22:40Z</time>
      </trkpt>
      <trkpt lat="47.07452" lon="4.96163">
        <ele>213.2</ele>
        <time>2020-03-12T13:22:47Z</time>
      </trkpt>
      <trkpt lat="47.07445" lon="4.96174">
        <ele>216.1</ele>
        <time>2020-03-12T13:23:19Z</time>
      </trkpt>
      <trkpt lat="47.07439" lon="4.96186">
        <ele>216.5</ele>
        <time>2020-03-12T13:23:25Z</time>
      </trkpt>
      <trkpt lat="47.07435" lon="4.96198">
        <ele>216.8</ele>
        <time>2020-03-12T13:23:33Z</time>
      </trkpt>
      <trkpt lat="47.07429" lon="4.96209">
        <ele>215.9</ele>
        <time>2020-03-12T13:24:12Z</time>
      </trkpt>
      <trkpt lat="47.07422" lon="4.96219">
        <ele>216.1</ele>
        <time>2020-03-12T13:24:22Z</time>
      </trkpt>
      <trkpt lat="47.07416" lon="4.96229">
        <ele>216.1</ele>
        <time>2020-03-12T13:24:37Z</time>
      </trkpt>
      <trkpt lat="47.07409" lon="4.96237">
        <ele>215.5</ele>
        <time>2020-03-12T13:24:43Z</time>
      </trkpt>
      <trkpt lat="47.07403" lon="4.96247">
        <ele>214.5</ele>
        <time>2020-03-12T13:24:51Z</time>
      </trkpt>
      <trkpt lat="47.07395" lon="4.96256">
        <ele>214.5</ele>
        <time>2020-03-12T13:24:59Z</time>
      </trkpt>
      <trkpt lat="47.07386" lon="4.96262">
        <ele>215.9</ele>
        <time>2020-03-12T13:25:05Z</time>
      </trkpt>
      <trkpt lat="47.07378" lon="4.9627">
        <ele>217.2</ele>
        <time>2020-03-12T13:25:13Z</time>
      </trkpt>
      <trkpt lat="47.07369" lon="4.96275">
        <ele>216.4</ele>
        <time>2020-03-12T13:25:24Z</time>
      </trkpt>
      <trkpt lat="47.0736" lon="4.96279">
        <ele>216</ele>
        <time>2020-03-12T13:25:34Z</time>
      </trkpt>
      <trkpt lat="47.07351" lon="4.96285">
        <ele>218.4</ele>
        <time>2020-03-12T13:25:44Z</time>
      </trkpt>
      <trkpt lat="47.07344" lon="4.96294">
        <ele>218.1</ele>
        <time>2020-03-12T13:25:55Z</time>
      </trkpt>
      <trkpt lat="47.0734" lon="4.96307">
        <ele>218.3</ele>
        <time>2020-03-12T13:26:03Z</time>
      </trkpt>
      <trkpt lat="47.07335" lon="4.9632">
        <ele>219.2</ele>
        <time>2020-03-12T13:26:14Z</time>
      </trkpt>
      <trkpt lat="47.07331" lon="4.96332">
        <ele>220.4</ele>
        <time>2020-03-12T13:26:25Z</time>
      </trkpt>
      <trkpt lat="47.07326" lon="4.96347">
        <ele>220.7</ele>
        <time>2020-03-12T13:26:32Z</time>
      </trkpt>
      <trkpt lat="47.07321" lon="4.96358">
        <ele>219.5</ele>
        <time>2020-03-12T13:26:43Z</time>
      </trkpt>
      <trkpt lat="47.07316" lon="4.9637">
        <ele>218.1</ele>
        <time>2020-03-12T13:26:54Z</time>
      </trkpt>
      <trkpt lat="47.07309" lon="4.96378">
        <ele>219</ele>
        <time>2020-03-12T13:27:00Z</time>
      </trkpt>
      <trkpt lat="47.07301" lon="4.96388">
        <ele>218.9</ele>
        <time>2020-03-12T13:27:09Z</time>
      </trkpt>
      <trkpt lat="47.07293" lon="4.96395">
        <ele>218.8</ele>
        <time>2020-03-12T13:27:21Z</time>
      </trkpt>
      <trkpt lat="47.07288" lon="4.96407">
        <ele>217.3</ele>
        <time>2020-03-12T13:27:33Z</time>
      </trkpt>
      <trkpt lat="47.07282" lon="4.96418">
        <ele>213.8</ele>
        <time>2020-03-12T13:27:49Z</time>
      </trkpt>
      <trkpt lat="47.07277" lon="4.96429">
        <ele>214.7</ele>
        <time>2020-03-12T13:27:58Z</time>
      </trkpt>
      <trkpt lat="47.07271" lon="4.96441">
        <ele>212.7</ele>
        <time>2020-03-12T13:28:11Z</time>
      </trkpt>
      <trkpt lat="47.07265" lon="4.96451">
        <ele>212.6</ele>
        <time>2020-03-12T13:28:19Z</time>
      </trkpt>
      <trkpt lat="47.07257" lon="4.96463">
        <ele>211.9</ele>
        <time>2020-03-12T13:28:30Z</time>
      </trkpt>
      <trkpt lat="47.07248" lon="4.96471">
        <ele>211.2</ele>
        <time>2020-03-12T13:28:36Z</time>
      </trkpt>
      <trkpt lat="47.07241" lon="4.9648">
        <ele>209.8</ele>
        <time>2020-03-12T13:28:45Z</time>
      </trkpt>
      <trkpt lat="47.07232" lon="4.96489">
        <ele>209.8</ele>
        <time>2020-03-12T13:28:53Z</time>
      </trkpt>
      <trkpt lat="47.07224" lon="4.96497">
        <ele>210</ele>
        <time>2020-03-12T13:29:00Z</time>
      </trkpt>
      <trkpt lat="47.07215" lon="4.96501">
        <ele>209.6</ele>
        <time>2020-03-12T13:29:06Z</time>
      </trkpt>
      <trkpt lat="47.07205" lon="4.96503">
        <ele>209.8</ele>
        <time>2020-03-12T13:29:12Z</time>
      </trkpt>
      <trkpt lat="47.07196" lon="4.96504">
        <ele>211</ele>
        <time>2020-03-12T13:29:19Z</time>
      </trkpt>
      <trkpt lat="47.07186" lon="4.96503">
        <ele>212.8</ele>
        <time>2020-03-12T13:29:28Z</time>
      </trkpt>
      <trkpt lat="47.07179" lon="4.96512">
        <ele>216.4</ele>
        <time>2020-03-12T13:29:43Z</time>
      </trkpt>
      <trkpt lat="47.07188" lon="4.96507">
        <ele>215.9</ele>
        <time>2020-03-12T13:30:11Z</time>
      </trkpt>
      <trkpt lat="47.07186" lon="4.96493">
        <ele>215.8</ele>
        <time>2020-03-12T13:30:28Z</time>
      </trkpt>
      <trkpt lat="47.07178" lon="4.96486">
        <ele>215.6</ele>
        <time>2020-03-12T13:30:39Z</time>
      </trkpt>
      <trkpt lat="47.0717" lon="4.96476">
        <ele>215.8</ele>
        <time>2020-03-12T13:30:46Z</time>
      </trkpt>
      <trkpt lat="47.07163" lon="4.96468">
        <ele>216.3</ele>
        <time>2020-03-12T13:30:56Z</time>
      </trkpt>
      <trkpt lat="47.0716" lon="4.96455">
        <ele>217.5</ele>
        <time>2020-03-12T13:31:07Z</time>
      </trkpt>
      <trkpt lat="47.07157" lon="4.96442">
        <ele>218.5</ele>
        <time>2020-03-12T13:31:20Z</time>
      </trkpt>
      <trkpt lat="47.07148" lon="4.96436">
        <ele>218.9</ele>
        <time>2020-03-12T13:31:26Z</time>
      </trkpt>
      <trkpt lat="47.07145" lon="4.96423">
        <ele>218.6</ele>
        <time>2020-03-12T13:31:38Z</time>
      </trkpt>
      <trkpt lat="47.07134" lon="4.96419">
        <ele>218.4</ele>
        <time>2020-03-12T13:31:41Z</time>
      </trkpt>
      <trkpt lat="47.07127" lon="4.96411">
        <ele>217.7</ele>
        <time>2020-03-12T13:31:49Z</time>
      </trkpt>
      <trkpt lat="47.07118" lon="4.96403">
        <ele>215.8</ele>
        <time>2020-03-12T13:32:00Z</time>
      </trkpt>
      <trkpt lat="47.0711" lon="4.96392">
        <ele>213.5</ele>
        <time>2020-03-12T13:32:09Z</time>
      </trkpt>
      <trkpt lat="47.07105" lon="4.96381">
        <ele>212.4</ele>
        <time>2020-03-12T13:32:14Z</time>
      </trkpt>
      <trkpt lat="47.071" lon="4.96369">
        <ele>213.8</ele>
        <time>2020-03-12T13:32:21Z</time>
      </trkpt>
      <trkpt lat="47.07099" lon="4.96356">
        <ele>214</ele>
        <time>2020-03-12T13:32:34Z</time>
      </trkpt>
      <trkpt lat="47.07094" lon="4.96344">
        <ele>214.5</ele>
        <time>2020-03-12T13:32:46Z</time>
      </trkpt>
      <trkpt lat="47.07087" lon="4.96335">
        <ele>215.4</ele>
        <time>2020-03-12T13:33:03Z</time>
      </trkpt>
      <trkpt lat="47.07078" lon="4.96324">
        <ele>214.8</ele>
        <time>2020-03-12T13:33:08Z</time>
      </trkpt>
      <trkpt lat="47.07069" lon="4.96317">
        <ele>214.7</ele>
        <time>2020-03-12T13:33:14Z</time>
      </trkpt>
      <trkpt lat="47.07061" lon="4.96311">
        <ele>213.1</ele>
        <time>2020-03-12T13:33:21Z</time>
      </trkpt>
      <trkpt lat="47.07053" lon="4.96301">
        <ele>212.5</ele>
        <time>2020-03-12T13:33:28Z</time>
      </trkpt>
      <trkpt lat="47.07045" lon="4.96291">
        <ele>210.8</ele>
        <time>2020-03-12T13:33:35Z</time>
      </trkpt>
      <trkpt lat="47.07038" lon="4.9628">
        <ele>209.6</ele>
        <time>2020-03-12T13:33:41Z</time>
      </trkpt>
      <trkpt lat="47.07032" lon="4.96267">
        <ele>209.2</ele>
        <time>2020-03-12T13:33:46Z</time>
      </trkpt>
      <trkpt lat="47.07027" lon="4.96257">
        <ele>207</ele>
        <time>2020-03-12T13:33:53Z</time>
      </trkpt>
      <trkpt lat="47.07021" lon="4.96245">
        <ele>206.9</ele>
        <time>2020-03-12T13:34:03Z</time>
      </trkpt>
      <trkpt lat="47.07017" lon="4.96233">
        <ele>205.7</ele>
        <time>2020-03-12T13:34:15Z</time>
      </trkpt>
      <trkpt lat="47.07011" lon="4.96222">
        <ele>205.5</ele>
        <time>2020-03-12T13:34:25Z</time>
      </trkpt>
      <trkpt lat="47.07005" lon="4.96212">
        <ele>205.1</ele>
        <time>2020-03-12T13:34:34Z</time>
      </trkpt>
      <trkpt lat="47.06998" lon="4.96202">
        <ele>204.7</ele>
        <time>2020-03-12T13:34:44Z</time>
      </trkpt>
      <trkpt lat="47.06991" lon="4.96193">
        <ele>203.9</ele>
        <time>2020-03-12T13:34:52Z</time>
      </trkpt>
      <trkpt lat="47.06984" lon="4.96184">
        <ele>205</ele>
        <time>2020-03-12T13:35:01Z</time>
      </trkpt>
      <trkpt lat="47.06977" lon="4.96175">
        <ele>205.3</ele>
        <time>2020-03-12T13:35:08Z</time>
      </trkpt>
      <trkpt lat="47.06967" lon="4.96167">
        <ele>205.4</ele>
        <time>2020-03-12T13:35:20Z</time>
      </trkpt>
      <trkpt lat="47.06958" lon="4.96165">
        <ele>205</ele>
        <time>2020-03-12T13:35:28Z</time>
      </trkpt>
      <trkpt lat="47.06949" lon="4.9617">
        <ele>202.2</ele>
        <time>2020-03-12T13:35:39Z</time>
      </trkpt>
      <trkpt lat="47.06941" lon="4.96179">
        <ele>201.7</ele>
        <time>2020-03-12T13:35:47Z</time>
      </trkpt>
      <trkpt lat="47.06932" lon="4.96182">
        <ele>201.7</ele>
        <time>2020-03-12T13:36:01Z</time>
      </trkpt>
      <trkpt lat="47.06923" lon="4.96187">
        <ele>200.8</ele>
        <time>2020-03-12T13:36:07Z</time>
      </trkpt>
      <trkpt lat="47.06916" lon="4.96195">
        <ele>201.2</ele>
        <time>2020-03-12T13:36:15Z</time>
      </trkpt>
      <trkpt lat="47.06906" lon="4.962">
        <ele>200.9</ele>
        <time>2020-03-12T13:36:22Z</time>
      </trkpt>
      <trkpt lat="47.06897" lon="4.96203">
        <ele>200.9</ele>
        <time>2020-03-12T13:36:31Z</time>
      </trkpt>
      <trkpt lat="47.06888" lon="4.96208">
        <ele>200.3</ele>
        <time>2020-03-12T13:36:40Z</time>
      </trkpt>
      <trkpt lat="47.06879" lon="4.96213">
        <ele>199.8</ele>
        <time>2020-03-12T13:36:50Z</time>
      </trkpt>
      <trkpt lat="47.06872" lon="4.96222">
        <ele>200.1</ele>
        <time>2020-03-12T13:37:02Z</time>
      </trkpt>
      <trkpt lat="47.06864" lon="4.9623">
        <ele>200</ele>
        <time>2020-03-12T13:37:11Z</time>
      </trkpt>
      <trkpt lat="47.06856" lon="4.96238">
        <ele>201</ele>
        <time>2020-03-12T13:37:21Z</time>
      </trkpt>
      <trkpt lat="47.06848" lon="4.96248">
        <ele>202.9</ele>
        <time>2020-03-12T13:37:30Z</time>
      </trkpt>
      <trkpt lat="47.06841" lon="4.96257">
        <ele>203.2</ele>
        <time>2020-03-12T13:37:39Z</time>
      </trkpt>
      <trkpt lat="47.06834" lon="4.96265">
        <ele>202.1</ele>
        <time>2020-03-12T13:37:48Z</time>
      </trkpt>
      <trkpt lat="47.06827" lon="4.96274">
        <ele>201</ele>
        <time>2020-03-12T13:37:56Z</time>
      </trkpt>
      <trkpt lat="47.06819" lon="4.96283">
        <ele>200.4</ele>
        <time>2020-03-12T13:38:04Z</time>
      </trkpt>
      <trkpt lat="47.06812" lon="4.96292">
        <ele>200.8</ele>
        <time>2020-03-12T13:38:12Z</time>
      </trkpt>
      <trkpt lat="47.06803" lon="4.96299">
        <ele>200</ele>
        <time>2020-03-12T13:38:20Z</time>
      </trkpt>
      <trkpt lat="47.06794" lon="4.96302">
        <ele>198.8</ele>
        <time>2020-03-12T13:38:27Z</time>
      </trkpt>
      <trkpt lat="47.06784" lon="4.96304">
        <ele>199</ele>
        <time>2020-03-12T13:38:34Z</time>
      </trkpt>
      <trkpt lat="47.06775" lon="4.96302">
        <ele>198.6</ele>
        <time>2020-03-12T13:38:40Z</time>
      </trkpt>
      <trkpt lat="47.06766" lon="4.96296">
        <ele>198.1</ele>
        <time>2020-03-12T13:38:46Z</time>
      </trkpt>
      <trkpt lat="47.06759" lon="4.96287">
        <ele>198.4</ele>
        <time>2020-03-12T13:38:53Z</time>
      </trkpt>
      <trkpt lat="47.06752" lon="4.96277">
        <ele>202.3</ele>
        <time>2020-03-12T13:39:02Z</time>
      </trkpt>
      <trkpt lat="47.06748" lon="4.96265">
        <ele>208.5</ele>
        <time>2020-03-12T13:39:13Z</time>
      </trkpt>
      <trkpt lat="47.06739" lon="4.96264">
        <ele>209.6</ele>
        <time>2020-03-12T13:39:29Z</time>
      </trkpt>
      <trkpt lat="47.0673" lon="4.96258">
        <ele>211.5</ele>
        <time>2020-03-12T13:39:41Z</time>
      </trkpt>
      <trkpt lat="47.06721" lon="4.96253">
        <ele>212.4</ele>
        <time>2020-03-12T13:39:46Z</time>
      </trkpt>
      <trkpt lat="47.06714" lon="4.96246">
        <ele>212.5</ele>
        <time>2020-03-12T13:39:53Z</time>
      </trkpt>
      <trkpt lat="47.06705" lon="4.96238">
        <ele>212</ele>
        <time>2020-03-12T13:40:02Z</time>
      </trkpt>
      <trkpt lat="47.06697" lon="4.96234">
        <ele>211.9</ele>
        <time>2020-03-12T13:40:15Z</time>
      </trkpt>
      <trkpt lat="47.06689" lon="4.96228">
        <ele>212.3</ele>
        <time>2020-03-12T13:40:22Z</time>
      </trkpt>
      <trkpt lat="47.0668" lon="4.96223">
        <ele>212.8</ele>
        <time>2020-03-12T13:40:32Z</time>
      </trkpt>
      <trkpt lat="47.06672" lon="4.96212">
        <ele>213.1</ele>
        <time>2020-03-12T13:40:39Z</time>
      </trkpt>
      <trkpt lat="47.06663" lon="4.96204">
        <ele>213.5</ele>
        <time>2020-03-12T13:40:46Z</time>
      </trkpt>
      <trkpt lat="47.06655" lon="4.96198">
        <ele>213.9</ele>
        <time>2020-03-12T13:40:55Z</time>
      </trkpt>
      <trkpt lat="47.06647" lon="4.96189">
        <ele>214.5</ele>
        <time>2020-03-12T13:41:01Z</time>
      </trkpt>
      <trkpt lat="47.06641" lon="4.96179">
        <ele>214.6</ele>
        <time>2020-03-12T13:41:07Z</time>
      </trkpt>
      <trkpt lat="47.06636" lon="4.96168">
        <ele>215.1</ele>
        <time>2020-03-12T13:41:13Z</time>
      </trkpt>
      <trkpt lat="47.06633" lon="4.96154">
        <ele>215.5</ele>
        <time>2020-03-12T13:41:25Z</time>
      </trkpt>
      <trkpt lat="47.06627" lon="4.96145">
        <ele>217.2</ele>
        <time>2020-03-12T13:41:33Z</time>
      </trkpt>
      <trkpt lat="47.06621" lon="4.96135">
        <ele>219.3</ele>
        <time>2020-03-12T13:41:42Z</time>
      </trkpt>
      <trkpt lat="47.06611" lon="4.96131">
        <ele>221.5</ele>
        <time>2020-03-12T13:42:02Z</time>
      </trkpt>
      <trkpt lat="47.06598" lon="4.96128">
        <ele>221.6</ele>
        <time>2020-03-12T13:42:14Z</time>
      </trkpt>
      <trkpt lat="47.06588" lon="4.96122">
        <ele>221</ele>
        <time>2020-03-12T13:42:24Z</time>
      </trkpt>
      <trkpt lat="47.06581" lon="4.96113">
        <ele>219.5</ele>
        <time>2020-03-12T13:42:32Z</time>
      </trkpt>
      <trkpt lat="47.06573" lon="4.96106">
        <ele>218.5</ele>
        <time>2020-03-12T13:42:40Z</time>
      </trkpt>
      <trkpt lat="47.06565" lon="4.96097">
        <ele>218.4</ele>
        <time>2020-03-12T13:42:55Z</time>
      </trkpt>
      <trkpt lat="47.06557" lon="4.96088">
        <ele>218.4</ele>
        <time>2020-03-12T13:43:10Z</time>
      </trkpt>
      <trkpt lat="47.06548" lon="4.96078">
        <ele>219</ele>
        <time>2020-03-12T13:43:16Z</time>
      </trkpt>
      <trkpt lat="47.0654" lon="4.96069">
        <ele>219.3</ele>
        <time>2020-03-12T13:43:19Z</time>
      </trkpt>
      <trkpt lat="47.06532" lon="4.96061">
        <ele>218.7</ele>
        <time>2020-03-12T13:43:26Z</time>
      </trkpt>
      <trkpt lat="47.06524" lon="4.96055">
        <ele>218.5</ele>
        <time>2020-03-12T13:43:47Z</time>
      </trkpt>
      <trkpt lat="47.06515" lon="4.96054">
        <ele>218.2</ele>
        <time>2020-03-12T13:44:00Z</time>
      </trkpt>
      <trkpt lat="47.06506" lon="4.96053">
        <ele>218.1</ele>
        <time>2020-03-12T13:44:13Z</time>
      </trkpt>
      <trkpt lat="47.06496" lon="4.9605">
        <ele>218.4</ele>
        <time>2020-03-12T13:44:22Z</time>
      </trkpt>
      <trkpt lat="47.06487" lon="4.96047">
        <ele>218.4</ele>
        <time>2020-03-12T13:44:27Z</time>
      </trkpt>
      <trkpt lat="47.06478" lon="4.96042">
        <ele>216.3</ele>
        <time>2020-03-12T13:45:52Z</time>
      </trkpt>
      <trkpt lat="47.06469" lon="4.96037">
        <ele>213.4</ele>
        <time>2020-03-12T13:46:02Z</time>
      </trkpt>
      <trkpt lat="47.0646" lon="4.96033">
        <ele>213.8</ele>
        <time>2020-03-12T13:46:14Z</time>
      </trkpt>
      <trkpt lat="47.0645" lon="4.96028">
        <ele>212.7</ele>
        <time>2020-03-12T13:46:24Z</time>
      </trkpt>
      <trkpt lat="47.06443" lon="4.9602">
        <ele>212.8</ele>
        <time>2020-03-12T13:46:33Z</time>
      </trkpt>
      <trkpt lat="47.06432" lon="4.96021">
        <ele>212.5</ele>
        <time>2020-03-12T13:46:40Z</time>
      </trkpt>
      <trkpt lat="47.06423" lon="4.9602">
        <ele>211.1</ele>
        <time>2020-03-12T13:47:02Z</time>
      </trkpt>
      <trkpt lat="47.06414" lon="4.96027">
        <ele>210.8</ele>
        <time>2020-03-12T13:47:13Z</time>
      </trkpt>
      <trkpt lat="47.06404" lon="4.96029">
        <ele>210.6</ele>
        <time>2020-03-12T13:47:18Z</time>
      </trkpt>
      <trkpt lat="47.06391" lon="4.96028">
        <ele>210.7</ele>
        <time>2020-03-12T13:47:20Z</time>
      </trkpt>
      <trkpt lat="47.06382" lon="4.96033">
        <ele>210.7</ele>
        <time>2020-03-12T13:47:28Z</time>
      </trkpt>
      <trkpt lat="47.06372" lon="4.96036">
        <ele>210.5</ele>
        <time>2020-03-12T13:47:37Z</time>
      </trkpt>
      <trkpt lat="47.06363" lon="4.96029">
        <ele>209.7</ele>
        <time>2020-03-12T13:47:45Z</time>
      </trkpt>
      <trkpt lat="47.06358" lon="4.96018">
        <ele>209.3</ele>
        <time>2020-03-12T13:47:50Z</time>
      </trkpt>
      <trkpt lat="47.06355" lon="4.96003">
        <ele>209.6</ele>
        <time>2020-03-12T13:47:58Z</time>
      </trkpt>
      <trkpt lat="47.06361" lon="4.95992">
        <ele>211.4</ele>
        <time>2020-03-12T13:48:10Z</time>
      </trkpt>
      <trkpt lat="47.06363" lon="4.95979">
        <ele>210.3</ele>
        <time>2020-03-12T13:48:43Z</time>
      </trkpt>
      <trkpt lat="47.0637" lon="4.95953">
        <ele>210.4</ele>
        <time>2020-03-12T13:50:12Z</time>
      </trkpt>
      <trkpt lat="47.0637" lon="4.9594">
        <ele>209.4</ele>
        <time>2020-03-12T13:50:58Z</time>
      </trkpt>
      <trkpt lat="47.06374" lon="4.95929">
        <ele>210.6</ele>
        <time>2020-03-12T13:51:18Z</time>
      </trkpt>
      <trkpt lat="47.06381" lon="4.95918">
        <ele>210.9</ele>
        <time>2020-03-12T13:51:24Z</time>
      </trkpt>
      <trkpt lat="47.06387" lon="4.95908">
        <ele>211.3</ele>
        <time>2020-03-12T13:51:33Z</time>
      </trkpt>
      <trkpt lat="47.06394" lon="4.95898">
        <ele>212.8</ele>
        <time>2020-03-12T13:51:43Z</time>
      </trkpt>
      <trkpt lat="47.06402" lon="4.95893">
        <ele>213.8</ele>
        <time>2020-03-12T13:51:55Z</time>
      </trkpt>
      <trkpt lat="47.06407" lon="4.95881">
        <ele>215.9</ele>
        <time>2020-03-12T13:52:10Z</time>
      </trkpt>
      <trkpt lat="47.0641" lon="4.95866">
        <ele>217.6</ele>
        <time>2020-03-12T13:52:18Z</time>
      </trkpt>
      <trkpt lat="47.06414" lon="4.95854">
        <ele>219.8</ele>
        <time>2020-03-12T13:52:32Z</time>
      </trkpt>
      <trkpt lat="47.06418" lon="4.95841">
        <ele>220</ele>
        <time>2020-03-12T13:52:41Z</time>
      </trkpt>
      <trkpt lat="47.06424" lon="4.95828">
        <ele>220</ele>
        <time>2020-03-12T13:52:48Z</time>
      </trkpt>
      <trkpt lat="47.06427" lon="4.95815">
        <ele>219.3</ele>
        <time>2020-03-12T13:52:59Z</time>
      </trkpt>
      <trkpt lat="47.06432" lon="4.95805">
        <ele>219.1</ele>
        <time>2020-03-12T13:53:04Z</time>
      </trkpt>
      <trkpt lat="47.06436" lon="4.95792">
        <ele>219.2</ele>
        <time>2020-03-12T13:53:14Z</time>
      </trkpt>
      <trkpt lat="47.06442" lon="4.95778">
        <ele>221.2</ele>
        <time>2020-03-12T13:53:21Z</time>
      </trkpt>
      <trkpt lat="47.06448" lon="4.95768">
        <ele>222.6</ele>
        <time>2020-03-12T13:53:25Z</time>
      </trkpt>
      <trkpt lat="47.06456" lon="4.95758">
        <ele>222.6</ele>
        <time>2020-03-12T13:53:32Z</time>
      </trkpt>
      <trkpt lat="47.06465" lon="4.95755">
        <ele>222.4</ele>
        <time>2020-03-12T13:53:46Z</time>
      </trkpt>
      <trkpt lat="47.06472" lon="4.95747">
        <ele>221.9</ele>
        <time>2020-03-12T13:53:56Z</time>
      </trkpt>
      <trkpt lat="47.06472" lon="4.95732">
        <ele>220.6</ele>
        <time>2020-03-12T13:54:16Z</time>
      </trkpt>
      <trkpt lat="47.06473" lon="4.95718">
        <ele>218.9</ele>
        <time>2020-03-12T13:54:32Z</time>
      </trkpt>
      <trkpt lat="47.06473" lon="4.95704">
        <ele>218.7</ele>
        <time>2020-03-12T13:54:43Z</time>
      </trkpt>
      <trkpt lat="47.06474" lon="4.9569">
        <ele>219.4</ele>
        <time>2020-03-12T13:54:54Z</time>
      </trkpt>
      <trkpt lat="47.06479" lon="4.95674">
        <ele>220.7</ele>
        <time>2020-03-12T13:55:00Z</time>
      </trkpt>
      <trkpt lat="47.06484" lon="4.95661">
        <ele>221.2</ele>
        <time>2020-03-12T13:55:04Z</time>
      </trkpt>
      <trkpt lat="47.06486" lon="4.95648">
        <ele>221.7</ele>
        <time>2020-03-12T13:55:10Z</time>
      </trkpt>
      <trkpt lat="47.0649" lon="4.95635">
        <ele>222.1</ele>
        <time>2020-03-12T13:55:16Z</time>
      </trkpt>
      <trkpt lat="47.06494" lon="4.95623">
        <ele>221.3</ele>
        <time>2020-03-12T13:55:23Z</time>
      </trkpt>
      <trkpt lat="47.06498" lon="4.9561">
        <ele>222</ele>
        <time>2020-03-12T13:55:30Z</time>
      </trkpt>
      <trkpt lat="47.06495" lon="4.95597">
        <ele>220.6</ele>
        <time>2020-03-12T13:55:38Z</time>
      </trkpt>
      <trkpt lat="47.06495" lon="4.95583">
        <ele>220.6</ele>
        <time>2020-03-12T13:55:50Z</time>
      </trkpt>
      <trkpt lat="47.06494" lon="4.95568">
        <ele>220.6</ele>
        <time>2020-03-12T13:55:59Z</time>
      </trkpt>
      <trkpt lat="47.06494" lon="4.95554">
        <ele>220.1</ele>
        <time>2020-03-12T13:56:08Z</time>
      </trkpt>
      <trkpt lat="47.06496" lon="4.95541">
        <ele>220.8</ele>
        <time>2020-03-12T13:56:20Z</time>
      </trkpt>
      <trkpt lat="47.06496" lon="4.95526">
        <ele>221.3</ele>
        <time>2020-03-12T13:56:31Z</time>
      </trkpt>
      <trkpt lat="47.06496" lon="4.95507">
        <ele>221.5</ele>
        <time>2020-03-12T13:56:37Z</time>
      </trkpt>
      <trkpt lat="47.06494" lon="4.95492">
        <ele>222.6</ele>
        <time>2020-03-12T13:56:55Z</time>
      </trkpt>
      <trkpt lat="47.06493" lon="4.95477">
        <ele>222.5</ele>
        <time>2020-03-12T13:57:38Z</time>
      </trkpt>
      <trkpt lat="47.0649" lon="4.95464">
        <ele>222</ele>
        <time>2020-03-12T13:57:44Z</time>
      </trkpt>
      <trkpt lat="47.06489" lon="4.9545">
        <ele>221.7</ele>
        <time>2020-03-12T13:57:51Z</time>
      </trkpt>
      <trkpt lat="47.06486" lon="4.95438">
        <ele>222</ele>
        <time>2020-03-12T13:58:02Z</time>
      </trkpt>
      <trkpt lat="47.06484" lon="4.95421">
        <ele>224.1</ele>
        <time>2020-03-12T13:58:07Z</time>
      </trkpt>
      <trkpt lat="47.06483" lon="4.95407">
        <ele>224.7</ele>
        <time>2020-03-12T13:58:13Z</time>
      </trkpt>
      <trkpt lat="47.06483" lon="4.95393">
        <ele>225.5</ele>
        <time>2020-03-12T13:58:19Z</time>
      </trkpt>
      <trkpt lat="47.06483" lon="4.95379">
        <ele>225.4</ele>
        <time>2020-03-12T13:58:29Z</time>
      </trkpt>
      <trkpt lat="47.06482" lon="4.95365">
        <ele>225.6</ele>
        <time>2020-03-12T13:58:34Z</time>
      </trkpt>
      <trkpt lat="47.06482" lon="4.95352">
        <ele>225.7</ele>
        <time>2020-03-12T13:58:44Z</time>
      </trkpt>
      <trkpt lat="47.06482" lon="4.95338">
        <ele>226.3</ele>
        <time>2020-03-12T13:59:02Z</time>
      </trkpt>
      <trkpt lat="47.0648" lon="4.95324">
        <ele>225.9</ele>
        <time>2020-03-12T13:59:11Z</time>
      </trkpt>
      <trkpt lat="47.06479" lon="4.95311">
        <ele>225.9</ele>
        <time>2020-03-12T13:59:51Z</time>
      </trkpt>
      <trkpt lat="47.06485" lon="4.953">
        <ele>225.1</ele>
        <time>2020-03-12T13:59:57Z</time>
      </trkpt>
      <trkpt lat="47.0649" lon="4.95289">
        <ele>225.6</ele>
        <time>2020-03-12T14:00:02Z</time>
      </trkpt>
      <trkpt lat="47.06496" lon="4.95279">
        <ele>225.3</ele>
        <time>2020-03-12T14:00:07Z</time>
      </trkpt>
      <trkpt lat="47.06501" lon="4.95268">
        <ele>224.9</ele>
        <time>2020-03-12T14:00:16Z</time>
      </trkpt>
      <trkpt lat="47.06507" lon="4.95257">
        <ele>223.2</ele>
        <time>2020-03-12T14:00:28Z</time>
      </trkpt>
      <trkpt lat="47.06514" lon="4.95246">
        <ele>223.2</ele>
        <time>2020-03-12T14:00:36Z</time>
      </trkpt>
      <trkpt lat="47.06521" lon="4.95235">
        <ele>223.1</ele>
        <time>2020-03-12T14:00:40Z</time>
      </trkpt>
      <trkpt lat="47.06527" lon="4.95223">
        <ele>220.9</ele>
        <time>2020-03-12T14:00:47Z</time>
      </trkpt>
      <trkpt lat="47.06532" lon="4.95212">
        <ele>219.9</ele>
        <time>2020-03-12T14:00:53Z</time>
      </trkpt>
      <trkpt lat="47.06539" lon="4.95201">
        <ele>217.7</ele>
        <time>2020-03-12T14:01:02Z</time>
      </trkpt>
      <trkpt lat="47.06546" lon="4.95192">
        <ele>217.5</ele>
        <time>2020-03-12T14:01:11Z</time>
      </trkpt>
      <trkpt lat="47.06553" lon="4.95183">
        <ele>217.9</ele>
        <time>2020-03-12T14:01:19Z</time>
      </trkpt>
      <trkpt lat="47.0656" lon="4.95174">
        <ele>218.3</ele>
        <time>2020-03-12T14:01:26Z</time>
      </trkpt>
      <trkpt lat="47.06566" lon="4.95162">
        <ele>217.7</ele>
        <time>2020-03-12T14:01:35Z</time>
      </trkpt>
      <trkpt lat="47.06571" lon="4.95151">
        <ele>216.2</ele>
        <time>2020-03-12T14:01:44Z</time>
      </trkpt>
      <trkpt lat="47.06577" lon="4.9514">
        <ele>215.5</ele>
        <time>2020-03-12T14:01:53Z</time>
      </trkpt>
      <trkpt lat="47.06582" lon="4.95129">
        <ele>213.3</ele>
        <time>2020-03-12T14:02:04Z</time>
      </trkpt>
      <trkpt lat="47.06587" lon="4.95118">
        <ele>213.7</ele>
        <time>2020-03-12T14:02:30Z</time>
      </trkpt>
      <trkpt lat="47.06591" lon="4.95105">
        <ele>214.9</ele>
        <time>2020-03-12T14:02:39Z</time>
      </trkpt>
      <trkpt lat="47.06597" lon="4.95096">
        <ele>217.2</ele>
        <time>2020-03-12T14:02:47Z</time>
      </trkpt>
      <trkpt lat="47.06604" lon="4.95087">
        <ele>218.4</ele>
        <time>2020-03-12T14:02:53Z</time>
      </trkpt>
      <trkpt lat="47.06608" lon="4.95075">
        <ele>219.7</ele>
        <time>2020-03-12T14:03:01Z</time>
      </trkpt>
      <trkpt lat="47.06613" lon="4.95062">
        <ele>222.5</ele>
        <time>2020-03-12T14:03:09Z</time>
      </trkpt>
      <trkpt lat="47.06619" lon="4.95052">
        <ele>225.1</ele>
        <time>2020-03-12T14:03:15Z</time>
      </trkpt>
      <trkpt lat="47.06628" lon="4.95047">
        <ele>226.3</ele>
        <time>2020-03-12T14:03:19Z</time>
      </trkpt>
      <trkpt lat="47.06633" lon="4.95036">
        <ele>226.6</ele>
        <time>2020-03-12T14:03:30Z</time>
      </trkpt>
      <trkpt lat="47.06641" lon="4.95028">
        <ele>226</ele>
        <time>2020-03-12T14:04:28Z</time>
      </trkpt>
      <trkpt lat="47.06642" lon="4.95013">
        <ele>226.1</ele>
        <time>2020-03-12T14:04:35Z</time>
      </trkpt>
      <trkpt lat="47.06646" lon="4.94998">
        <ele>226</ele>
        <time>2020-03-12T14:04:42Z</time>
      </trkpt>
      <trkpt lat="47.06652" lon="4.94987">
        <ele>225</ele>
        <time>2020-03-12T14:04:47Z</time>
      </trkpt>
      <trkpt lat="47.06657" lon="4.94976">
        <ele>223.8</ele>
        <time>2020-03-12T14:04:54Z</time>
      </trkpt>
      <trkpt lat="47.06662" lon="4.94964">
        <ele>223.5</ele>
        <time>2020-03-12T14:05:05Z</time>
      </trkpt>
      <trkpt lat="47.06667" lon="4.94951">
        <ele>223.9</ele>
        <time>2020-03-12T14:05:15Z</time>
      </trkpt>
      <trkpt lat="47.06671" lon="4.94938">
        <ele>225.4</ele>
        <time>2020-03-12T14:05:26Z</time>
      </trkpt>
      <trkpt lat="47.06677" lon="4.94927">
        <ele>224.6</ele>
        <time>2020-03-12T14:05:34Z</time>
      </trkpt>
      <trkpt lat="47.06682" lon="4.94916">
        <ele>224</ele>
        <time>2020-03-12T14:05:43Z</time>
      </trkpt>
      <trkpt lat="47.06687" lon="4.94904">
        <ele>224.3</ele>
        <time>2020-03-12T14:05:55Z</time>
      </trkpt>
      <trkpt lat="47.06692" lon="4.94892">
        <ele>224.4</ele>
        <time>2020-03-12T14:06:01Z</time>
      </trkpt>
      <trkpt lat="47.06699" lon="4.94884">
        <ele>222.3</ele>
        <time>2020-03-12T14:06:38Z</time>
      </trkpt>
      <trkpt lat="47.06703" lon="4.94871">
        <ele>222.5</ele>
        <time>2020-03-12T14:06:47Z</time>
      </trkpt>
      <trkpt lat="47.06706" lon="4.94858">
        <ele>221.4</ele>
        <time>2020-03-12T14:06:56Z</time>
      </trkpt>
      <trkpt lat="47.06707" lon="4.94844">
        <ele>220.6</ele>
        <time>2020-03-12T14:07:05Z</time>
      </trkpt>
      <trkpt lat="47.06709" lon="4.9483">
        <ele>219.6</ele>
        <time>2020-03-12T14:07:13Z</time>
      </trkpt>
      <trkpt lat="47.06707" lon="4.94815">
        <ele>219.2</ele>
        <time>2020-03-12T14:07:22Z</time>
      </trkpt>
      <trkpt lat="47.06707" lon="4.94802">
        <ele>219.5</ele>
        <time>2020-03-12T14:07:30Z</time>
      </trkpt>
      <trkpt lat="47.06707" lon="4.94788">
        <ele>221.7</ele>
        <time>2020-03-12T14:07:39Z</time>
      </trkpt>
      <trkpt lat="47.0671" lon="4.94775">
        <ele>222.7</ele>
        <time>2020-03-12T14:07:47Z</time>
      </trkpt>
      <trkpt lat="47.06713" lon="4.94761">
        <ele>225</ele>
        <time>2020-03-12T14:07:56Z</time>
      </trkpt>
      <trkpt lat="47.06714" lon="4.94748">
        <ele>226.9</ele>
        <time>2020-03-12T14:08:04Z</time>
      </trkpt>
      <trkpt lat="47.06718" lon="4.94735">
        <ele>227.6</ele>
        <time>2020-03-12T14:08:43Z</time>
      </trkpt>
      <trkpt lat="47.06719" lon="4.94721">
        <ele>226.7</ele>
        <time>2020-03-12T14:08:56Z</time>
      </trkpt>
      <trkpt lat="47.06723" lon="4.94709">
        <ele>225.1</ele>
        <time>2020-03-12T14:09:02Z</time>
      </trkpt>
      <trkpt lat="47.06724" lon="4.94695">
        <ele>223.1</ele>
        <time>2020-03-12T14:09:11Z</time>
      </trkpt>
      <trkpt lat="47.06725" lon="4.94681">
        <ele>223.1</ele>
        <time>2020-03-12T14:09:23Z</time>
      </trkpt>
      <trkpt lat="47.06729" lon="4.94669">
        <ele>225.4</ele>
        <time>2020-03-12T14:09:29Z</time>
      </trkpt>
      <trkpt lat="47.06733" lon="4.94656">
        <ele>225.8</ele>
        <time>2020-03-12T14:09:44Z</time>
      </trkpt>
      <trkpt lat="47.06735" lon="4.94641">
        <ele>224.9</ele>
        <time>2020-03-12T14:09:53Z</time>
      </trkpt>
      <trkpt lat="47.06737" lon="4.94628">
        <ele>223.4</ele>
        <time>2020-03-12T14:10:00Z</time>
      </trkpt>
      <trkpt lat="47.06737" lon="4.94614">
        <ele>225.3</ele>
        <time>2020-03-12T14:10:08Z</time>
      </trkpt>
      <trkpt lat="47.0674" lon="4.94601">
        <ele>226.2</ele>
        <time>2020-03-12T14:10:17Z</time>
      </trkpt>
      <trkpt lat="47.06742" lon="4.94588">
        <ele>227.6</ele>
        <time>2020-03-12T14:10:25Z</time>
      </trkpt>
      <trkpt lat="47.06742" lon="4.94574">
        <ele>227.7</ele>
        <time>2020-03-12T14:10:35Z</time>
      </trkpt>
      <trkpt lat="47.06743" lon="4.9456">
        <ele>228.5</ele>
        <time>2020-03-12T14:10:45Z</time>
      </trkpt>
      <trkpt lat="47.06744" lon="4.94546">
        <ele>230.1</ele>
        <time>2020-03-12T14:10:54Z</time>
      </trkpt>
      <trkpt lat="47.06753" lon="4.9454">
        <ele>230.1</ele>
        <time>2020-03-12T14:11:28Z</time>
      </trkpt>
      <trkpt lat="47.06751" lon="4.94526">
        <ele>227.5</ele>
        <time>2020-03-12T14:11:38Z</time>
      </trkpt>
      <trkpt lat="47.06749" lon="4.94512">
        <ele>229.6</ele>
        <time>2020-03-12T14:11:48Z</time>
      </trkpt>
      <trkpt lat="47.06749" lon="4.94498">
        <ele>230.9</ele>
        <time>2020-03-12T14:11:58Z</time>
      </trkpt>
      <trkpt lat="47.0675" lon="4.94484">
        <ele>230.7</ele>
        <time>2020-03-12T14:12:09Z</time>
      </trkpt>
      <trkpt lat="47.06752" lon="4.94471">
        <ele>231.7</ele>
        <time>2020-03-12T14:12:16Z</time>
      </trkpt>
      <trkpt lat="47.06754" lon="4.94458">
        <ele>232.2</ele>
        <time>2020-03-12T14:12:23Z</time>
      </trkpt>
      <trkpt lat="47.06756" lon="4.94444">
        <ele>232.2</ele>
        <time>2020-03-12T14:12:31Z</time>
      </trkpt>
      <trkpt lat="47.06758" lon="4.94429">
        <ele>233.4</ele>
        <time>2020-03-12T14:12:37Z</time>
      </trkpt>
      <trkpt lat="47.0676" lon="4.94416">
        <ele>233.5</ele>
        <time>2020-03-12T14:12:44Z</time>
      </trkpt>
      <trkpt lat="47.06762" lon="4.94402">
        <ele>234.6</ele>
        <time>2020-03-12T14:12:51Z</time>
      </trkpt>
      <trkpt lat="47.06765" lon="4.94388">
        <ele>234.5</ele>
        <time>2020-03-12T14:13:00Z</time>
      </trkpt>
      <trkpt lat="47.0677" lon="4.94377">
        <ele>233.4</ele>
        <time>2020-03-12T14:13:28Z</time>
      </trkpt>
      <trkpt lat="47.0677" lon="4.94362">
        <ele>233.1</ele>
        <time>2020-03-12T14:13:38Z</time>
      </trkpt>
      <trkpt lat="47.06771" lon="4.94349">
        <ele>233</ele>
        <time>2020-03-12T14:13:44Z</time>
      </trkpt>
      <trkpt lat="47.0677" lon="4.94335">
        <ele>233.1</ele>
        <time>2020-03-12T14:13:53Z</time>
      </trkpt>
      <trkpt lat="47.06769" lon="4.94321">
        <ele>233.5</ele>
        <time>2020-03-12T14:14:03Z</time>
      </trkpt>
      <trkpt lat="47.06771" lon="4.94307">
        <ele>233</ele>
        <time>2020-03-12T14:14:13Z</time>
      </trkpt>
      <trkpt lat="47.06773" lon="4.94293">
        <ele>233.4</ele>
        <time>2020-03-12T14:14:22Z</time>
      </trkpt>
      <trkpt lat="47.06774" lon="4.94279">
        <ele>233.8</ele>
        <time>2020-03-12T14:14:31Z</time>
      </trkpt>
      <trkpt lat="47.06776" lon="4.94265">
        <ele>234.2</ele>
        <time>2020-03-12T14:14:39Z</time>
      </trkpt>
      <trkpt lat="47.06778" lon="4.94252">
        <ele>233.7</ele>
        <time>2020-03-12T14:14:48Z</time>
      </trkpt>
      <trkpt lat="47.0678" lon="4.94238">
        <ele>233.6</ele>
        <time>2020-03-12T14:14:55Z</time>
      </trkpt>
      <trkpt lat="47.06782" lon="4.94223">
        <ele>234.4</ele>
        <time>2020-03-12T14:15:02Z</time>
      </trkpt>
      <trkpt lat="47.06783" lon="4.9421">
        <ele>234.6</ele>
        <time>2020-03-12T14:15:11Z</time>
      </trkpt>
      <trkpt lat="47.06785" lon="4.94197">
        <ele>234.6</ele>
        <time>2020-03-12T14:15:21Z</time>
      </trkpt>
      <trkpt lat="47.06788" lon="4.94184">
        <ele>233.8</ele>
        <time>2020-03-12T14:15:27Z</time>
      </trkpt>
      <trkpt lat="47.06791" lon="4.9417">
        <ele>233.3</ele>
        <time>2020-03-12T14:15:34Z</time>
      </trkpt>
      <trkpt lat="47.06794" lon="4.94156">
        <ele>233.2</ele>
        <time>2020-03-12T14:15:41Z</time>
      </trkpt>
      <trkpt lat="47.06797" lon="4.94142">
        <ele>234.3</ele>
        <time>2020-03-12T14:15:50Z</time>
      </trkpt>
      <trkpt lat="47.06804" lon="4.94132">
        <ele>235.2</ele>
        <time>2020-03-12T14:17:50Z</time>
      </trkpt>
      <trkpt lat="47.06813" lon="4.94134">
        <ele>235.6</ele>
        <time>2020-03-12T14:20:47Z</time>
      </trkpt>
      <trkpt lat="47.06822" lon="4.94137">
        <ele>237.3</ele>
        <time>2020-03-12T14:21:02Z</time>
      </trkpt>
      <trkpt lat="47.06831" lon="4.94138">
        <ele>238.6</ele>
        <time>2020-03-12T14:21:07Z</time>
      </trkpt>
      <trkpt lat="47.06841" lon="4.94138">
        <ele>238.9</ele>
        <time>2020-03-12T14:21:14Z</time>
      </trkpt>
      <trkpt lat="47.0685" lon="4.9414">
        <ele>238.3</ele>
        <time>2020-03-12T14:21:31Z</time>
      </trkpt>
      <trkpt lat="47.0686" lon="4.94141">
        <ele>238.5</ele>
        <time>2020-03-12T14:21:38Z</time>
      </trkpt>
      <trkpt lat="47.06869" lon="4.94141">
        <ele>239.6</ele>
        <time>2020-03-12T14:21:45Z</time>
      </trkpt>
      <trkpt lat="47.06878" lon="4.94142">
        <ele>240.8</ele>
        <time>2020-03-12T14:21:56Z</time>
      </trkpt>
      <trkpt lat="47.06888" lon="4.94144">
        <ele>240.9</ele>
        <time>2020-03-12T14:22:05Z</time>
      </trkpt>
      <trkpt lat="47.06897" lon="4.94146">
        <ele>239.8</ele>
        <time>2020-03-12T14:22:10Z</time>
      </trkpt>
      <trkpt lat="47.06907" lon="4.94148">
        <ele>238.4</ele>
        <time>2020-03-12T14:22:14Z</time>
      </trkpt>
      <trkpt lat="47.06917" lon="4.9415">
        <ele>238.8</ele>
        <time>2020-03-12T14:22:26Z</time>
      </trkpt>
      <trkpt lat="47.06929" lon="4.94152">
        <ele>237.5</ele>
        <time>2020-03-12T14:22:30Z</time>
      </trkpt>
      <trkpt lat="47.06939" lon="4.94153">
        <ele>235.6</ele>
        <time>2020-03-12T14:22:37Z</time>
      </trkpt>
      <trkpt lat="47.06948" lon="4.94153">
        <ele>235.4</ele>
        <time>2020-03-12T14:22:52Z</time>
      </trkpt>
      <trkpt lat="47.06959" lon="4.94155">
        <ele>235.9</ele>
        <time>2020-03-12T14:23:03Z</time>
      </trkpt>
      <trkpt lat="47.06969" lon="4.94158">
        <ele>235.8</ele>
        <time>2020-03-12T14:23:07Z</time>
      </trkpt>
      <trkpt lat="47.06979" lon="4.9416">
        <ele>235.1</ele>
        <time>2020-03-12T14:23:14Z</time>
      </trkpt>
      <trkpt lat="47.06988" lon="4.94162">
        <ele>234.8</ele>
        <time>2020-03-12T14:23:27Z</time>
      </trkpt>
      <trkpt lat="47.06997" lon="4.94163">
        <ele>235.5</ele>
        <time>2020-03-12T14:23:39Z</time>
      </trkpt>
      <trkpt lat="47.07006" lon="4.94164">
        <ele>235.9</ele>
        <time>2020-03-12T14:23:49Z</time>
      </trkpt>
      <trkpt lat="47.07017" lon="4.94165">
        <ele>235</ele>
        <time>2020-03-12T14:23:55Z</time>
      </trkpt>
      <trkpt lat="47.07027" lon="4.94167">
        <ele>234.8</ele>
        <time>2020-03-12T14:24:01Z</time>
      </trkpt>
      <trkpt lat="47.07037" lon="4.94168">
        <ele>234.8</ele>
        <time>2020-03-12T14:24:06Z</time>
      </trkpt>
      <trkpt lat="47.07046" lon="4.9417">
        <ele>234.6</ele>
        <time>2020-03-12T14:24:18Z</time>
      </trkpt>
      <trkpt lat="47.07056" lon="4.94171">
        <ele>234.7</ele>
        <time>2020-03-12T14:24:23Z</time>
      </trkpt>
      <trkpt lat="47.07065" lon="4.94172">
        <ele>233.8</ele>
        <time>2020-03-12T14:24:39Z</time>
      </trkpt>
      <trkpt lat="47.07074" lon="4.94173">
        <ele>234.3</ele>
        <time>2020-03-12T14:24:44Z</time>
      </trkpt>
      <trkpt lat="47.07085" lon="4.94175">
        <ele>234</ele>
        <time>2020-03-12T14:24:49Z</time>
      </trkpt>
      <trkpt lat="47.07095" lon="4.94176">
        <ele>233.7</ele>
        <time>2020-03-12T14:24:52Z</time>
      </trkpt>
      <trkpt lat="47.07104" lon="4.94178">
        <ele>233.2</ele>
        <time>2020-03-12T14:25:00Z</time>
      </trkpt>
      <trkpt lat="47.07114" lon="4.94179">
        <ele>233.6</ele>
        <time>2020-03-12T14:25:17Z</time>
      </trkpt>
      <trkpt lat="47.07124" lon="4.94182">
        <ele>233.7</ele>
        <time>2020-03-12T14:25:21Z</time>
      </trkpt>
      <trkpt lat="47.07133" lon="4.94185">
        <ele>233.3</ele>
        <time>2020-03-12T14:25:28Z</time>
      </trkpt>
      <trkpt lat="47.07143" lon="4.94187">
        <ele>231.5</ele>
        <time>2020-03-12T14:25:35Z</time>
      </trkpt>
      <trkpt lat="47.07153" lon="4.94188">
        <ele>230</ele>
        <time>2020-03-12T14:25:45Z</time>
      </trkpt>
      <trkpt lat="47.07163" lon="4.94188">
        <ele>226.4</ele>
        <time>2020-03-12T14:25:53Z</time>
      </trkpt>
      <trkpt lat="47.07172" lon="4.9419">
        <ele>223.7</ele>
        <time>2020-03-12T14:26:04Z</time>
      </trkpt>
      <trkpt lat="47.07184" lon="4.94194">
        <ele>221.8</ele>
        <time>2020-03-12T14:26:10Z</time>
      </trkpt>
      <trkpt lat="47.07193" lon="4.94197">
        <ele>220.8</ele>
        <time>2020-03-12T14:26:17Z</time>
      </trkpt>
      <trkpt lat="47.07204" lon="4.94201">
        <ele>220.1</ele>
        <time>2020-03-12T14:26:27Z</time>
      </trkpt>
      <trkpt lat="47.07215" lon="4.94204">
        <ele>217.5</ele>
        <time>2020-03-12T14:26:37Z</time>
      </trkpt>
      <trkpt lat="47.07225" lon="4.94207">
        <ele>217.6</ele>
        <time>2020-03-12T14:26:46Z</time>
      </trkpt>
      <trkpt lat="47.07234" lon="4.94209">
        <ele>216.8</ele>
        <time>2020-03-12T14:27:03Z</time>
      </trkpt>
      <trkpt lat="47.07243" lon="4.94212">
        <ele>215.1</ele>
        <time>2020-03-12T14:27:08Z</time>
      </trkpt>
      <trkpt lat="47.07254" lon="4.94215">
        <ele>213.6</ele>
        <time>2020-03-12T14:27:14Z</time>
      </trkpt>
      <trkpt lat="47.07264" lon="4.94217">
        <ele>213.4</ele>
        <time>2020-03-12T14:27:18Z</time>
      </trkpt>
      <trkpt lat="47.07274" lon="4.9422">
        <ele>212</ele>
        <time>2020-03-12T14:27:24Z</time>
      </trkpt>
      <trkpt lat="47.07283" lon="4.94223">
        <ele>212</ele>
        <time>2020-03-12T14:27:31Z</time>
      </trkpt>
      <trkpt lat="47.07293" lon="4.94226">
        <ele>212.7</ele>
        <time>2020-03-12T14:27:39Z</time>
      </trkpt>
      <trkpt lat="47.07302" lon="4.94229">
        <ele>212.3</ele>
        <time>2020-03-12T14:27:48Z</time>
      </trkpt>
      <trkpt lat="47.07311" lon="4.9423">
        <ele>211.3</ele>
        <time>2020-03-12T14:28:01Z</time>
      </trkpt>
      <trkpt lat="47.07321" lon="4.9423">
        <ele>211.1</ele>
        <time>2020-03-12T14:28:10Z</time>
      </trkpt>
      <trkpt lat="47.0733" lon="4.94235">
        <ele>209.8</ele>
        <time>2020-03-12T14:28:18Z</time>
      </trkpt>
      <trkpt lat="47.07339" lon="4.94235">
        <ele>205.8</ele>
        <time>2020-03-12T14:28:28Z</time>
      </trkpt>
      <trkpt lat="47.07348" lon="4.94236">
        <ele>202.9</ele>
        <time>2020-03-12T14:28:37Z</time>
      </trkpt>
      <trkpt lat="47.07357" lon="4.94238">
        <ele>202.3</ele>
        <time>2020-03-12T14:28:47Z</time>
      </trkpt>
      <trkpt lat="47.07367" lon="4.94241">
        <ele>201.9</ele>
        <time>2020-03-12T14:28:56Z</time>
      </trkpt>
      <trkpt lat="47.07376" lon="4.94246">
        <ele>201.4</ele>
        <time>2020-03-12T14:29:05Z</time>
      </trkpt>
      <trkpt lat="47.07385" lon="4.94249">
        <ele>200.2</ele>
        <time>2020-03-12T14:29:13Z</time>
      </trkpt>
      <trkpt lat="47.07394" lon="4.9425">
        <ele>200.1</ele>
        <time>2020-03-12T14:29:22Z</time>
      </trkpt>
      <trkpt lat="47.07403" lon="4.94254">
        <ele>200.5</ele>
        <time>2020-03-12T14:29:31Z</time>
      </trkpt>
      <trkpt lat="47.07413" lon="4.94256">
        <ele>200.7</ele>
        <time>2020-03-12T14:29:40Z</time>
      </trkpt>
      <trkpt lat="47.07422" lon="4.9426">
        <ele>200</ele>
        <time>2020-03-12T14:30:02Z</time>
      </trkpt>
      <trkpt lat="47.07432" lon="4.94263">
        <ele>199.7</ele>
        <time>2020-03-12T14:30:11Z</time>
      </trkpt>
      <trkpt lat="47.07441" lon="4.94265">
        <ele>199.9</ele>
        <time>2020-03-12T14:30:19Z</time>
      </trkpt>
      <trkpt lat="47.07451" lon="4.94268">
        <ele>200.2</ele>
        <time>2020-03-12T14:30:27Z</time>
      </trkpt>
      <trkpt lat="47.0746" lon="4.94272">
        <ele>200.3</ele>
        <time>2020-03-12T14:30:36Z</time>
      </trkpt>
      <trkpt lat="47.07468" lon="4.94275">
        <ele>198.7</ele>
        <time>2020-03-12T14:30:44Z</time>
      </trkpt>
      <trkpt lat="47.07476" lon="4.94284">
        <ele>197.5</ele>
        <time>2020-03-12T14:30:53Z</time>
      </trkpt>
      <trkpt lat="47.0748" lon="4.94297">
        <ele>197.5</ele>
        <time>2020-03-12T14:31:01Z</time>
      </trkpt>
      <trkpt lat="47.07481" lon="4.94311">
        <ele>197.9</ele>
        <time>2020-03-12T14:31:09Z</time>
      </trkpt>
      <trkpt lat="47.07479" lon="4.94326">
        <ele>199.2</ele>
        <time>2020-03-12T14:31:17Z</time>
      </trkpt>
      <trkpt lat="47.07476" lon="4.94339">
        <ele>198.9</ele>
        <time>2020-03-12T14:31:25Z</time>
      </trkpt>
      <trkpt lat="47.07472" lon="4.94352">
        <ele>199.8</ele>
        <time>2020-03-12T14:31:34Z</time>
      </trkpt>
      <trkpt lat="47.0747" lon="4.94365">
        <ele>200.7</ele>
        <time>2020-03-12T14:31:44Z</time>
      </trkpt>
      <trkpt lat="47.0747" lon="4.94379">
        <ele>199.9</ele>
        <time>2020-03-12T14:31:54Z</time>
      </trkpt>
      <trkpt lat="47.07474" lon="4.94392">
        <ele>199.7</ele>
        <time>2020-03-12T14:32:05Z</time>
      </trkpt>
      <trkpt lat="47.0748" lon="4.94402">
        <ele>200.6</ele>
        <time>2020-03-12T14:32:15Z</time>
      </trkpt>
      <trkpt lat="47.07487" lon="4.94412">
        <ele>201</ele>
        <time>2020-03-12T14:32:24Z</time>
      </trkpt>
      <trkpt lat="47.07495" lon="4.9442">
        <ele>201.1</ele>
        <time>2020-03-12T14:32:33Z</time>
      </trkpt>
      <trkpt lat="47.07504" lon="4.94428">
        <ele>200.8</ele>
        <time>2020-03-12T14:32:42Z</time>
      </trkpt>
      <trkpt lat="47.07512" lon="4.94437">
        <ele>200.7</ele>
        <time>2020-03-12T14:32:51Z</time>
      </trkpt>
      <trkpt lat="47.07519" lon="4.94445">
        <ele>200.4</ele>
        <time>2020-03-12T14:32:59Z</time>
      </trkpt>
      <trkpt lat="47.07526" lon="4.94454">
        <ele>200.2</ele>
        <time>2020-03-12T14:33:08Z</time>
      </trkpt>
      <trkpt lat="47.07534" lon="4.94463">
        <ele>199.4</ele>
        <time>2020-03-12T14:33:17Z</time>
      </trkpt>
      <trkpt lat="47.07542" lon="4.94471">
        <ele>199.5</ele>
        <time>2020-03-12T14:33:25Z</time>
      </trkpt>
      <trkpt lat="47.07548" lon="4.94481">
        <ele>199.7</ele>
        <time>2020-03-12T14:33:34Z</time>
      </trkpt>
      <trkpt lat="47.07555" lon="4.9449">
        <ele>201</ele>
        <time>2020-03-12T14:33:42Z</time>
      </trkpt>
      <trkpt lat="47.07562" lon="4.94501">
        <ele>201.7</ele>
        <time>2020-03-12T14:33:51Z</time>
      </trkpt>
      <trkpt lat="47.07568" lon="4.94511">
        <ele>202.5</ele>
        <time>2020-03-12T14:33:59Z</time>
      </trkpt>
      <trkpt lat="47.07575" lon="4.94521">
        <ele>202.2</ele>
        <time>2020-03-12T14:34:07Z</time>
      </trkpt>
      <trkpt lat="47.0758" lon="4.94532">
        <ele>201.8</ele>
        <time>2020-03-12T14:34:16Z</time>
      </trkpt>
      <trkpt lat="47.07586" lon="4.94543">
        <ele>201.2</ele>
        <time>2020-03-12T14:34:25Z</time>
      </trkpt>
      <trkpt lat="47.07592" lon="4.94554">
        <ele>201.1</ele>
        <time>2020-03-12T14:34:35Z</time>
      </trkpt>
      <trkpt lat="47.07598" lon="4.94565">
        <ele>200.8</ele>
        <time>2020-03-12T14:34:45Z</time>
      </trkpt>
      <trkpt lat="47.07605" lon="4.94575">
        <ele>200.1</ele>
        <time>2020-03-12T14:34:53Z</time>
      </trkpt>
      <trkpt lat="47.07612" lon="4.94584">
        <ele>201.5</ele>
        <time>2020-03-12T14:35:02Z</time>
      </trkpt>
      <trkpt lat="47.07618" lon="4.94594">
        <ele>202.2</ele>
        <time>2020-03-12T14:35:31Z</time>
      </trkpt>
      <trkpt lat="47.07625" lon="4.94603">
        <ele>202.7</ele>
        <time>2020-03-12T14:35:40Z</time>
      </trkpt>
      <trkpt lat="47.07631" lon="4.94613">
        <ele>204</ele>
        <time>2020-03-12T14:35:48Z</time>
      </trkpt>
      <trkpt lat="47.07637" lon="4.94624">
        <ele>206.5</ele>
        <time>2020-03-12T14:35:56Z</time>
      </trkpt>
      <trkpt lat="47.07643" lon="4.94634">
        <ele>209</ele>
        <time>2020-03-12T14:36:04Z</time>
      </trkpt>
      <trkpt lat="47.07645" lon="4.94647">
        <ele>210.5</ele>
        <time>2020-03-12T14:36:35Z</time>
      </trkpt>
      <trkpt lat="47.07653" lon="4.94655">
        <ele>212.7</ele>
        <time>2020-03-12T14:44:52Z</time>
      </trkpt>
      <trkpt lat="47.07659" lon="4.94666">
        <ele>212.9</ele>
        <time>2020-03-12T14:45:05Z</time>
      </trkpt>
      <trkpt lat="47.07666" lon="4.94676">
        <ele>211.5</ele>
        <time>2020-03-12T14:45:15Z</time>
      </trkpt>
      <trkpt lat="47.07674" lon="4.94684">
        <ele>210.5</ele>
        <time>2020-03-12T14:45:22Z</time>
      </trkpt>
      <trkpt lat="47.07683" lon="4.94691">
        <ele>210.6</ele>
        <time>2020-03-12T14:45:31Z</time>
      </trkpt>
      <trkpt lat="47.07691" lon="4.94698">
        <ele>211.3</ele>
        <time>2020-03-12T14:45:41Z</time>
      </trkpt>
      <trkpt lat="47.07699" lon="4.94705">
        <ele>211.1</ele>
        <time>2020-03-12T14:45:51Z</time>
      </trkpt>
      <trkpt lat="47.07708" lon="4.94709">
        <ele>210.7</ele>
        <time>2020-03-12T14:45:59Z</time>
      </trkpt>
      <trkpt lat="47.07717" lon="4.94715">
        <ele>210.8</ele>
        <time>2020-03-12T14:46:07Z</time>
      </trkpt>
      <trkpt lat="47.07726" lon="4.94723">
        <ele>211.1</ele>
        <time>2020-03-12T14:46:16Z</time>
      </trkpt>
      <trkpt lat="47.07734" lon="4.94729">
        <ele>210.8</ele>
        <time>2020-03-12T14:46:25Z</time>
      </trkpt>
      <trkpt lat="47.07744" lon="4.94734">
        <ele>211</ele>
        <time>2020-03-12T14:46:34Z</time>
      </trkpt>
      <trkpt lat="47.07753" lon="4.94739">
        <ele>210.9</ele>
        <time>2020-03-12T14:46:44Z</time>
      </trkpt>
      <trkpt lat="47.07762" lon="4.94743">
        <ele>210.8</ele>
        <time>2020-03-12T14:46:53Z</time>
      </trkpt>
      <trkpt lat="47.07767" lon="4.94732">
        <ele>207.9</ele>
        <time>2020-03-12T14:47:47Z</time>
      </trkpt>
      <trkpt lat="47.0777" lon="4.94719">
        <ele>209.3</ele>
        <time>2020-03-12T14:47:58Z</time>
      </trkpt>
      <trkpt lat="47.07774" lon="4.94707">
        <ele>209.2</ele>
        <time>2020-03-12T14:48:08Z</time>
      </trkpt>
      <trkpt lat="47.07779" lon="4.94695">
        <ele>208.6</ele>
        <time>2020-03-12T14:48:17Z</time>
      </trkpt>
      <trkpt lat="47.07785" lon="4.94685">
        <ele>208.9</ele>
        <time>2020-03-12T14:48:25Z</time>
      </trkpt>
      <trkpt lat="47.07792" lon="4.94676">
        <ele>208.9</ele>
        <time>2020-03-12T14:48:34Z</time>
      </trkpt>
      <trkpt lat="47.07799" lon="4.94666">
        <ele>209.5</ele>
        <time>2020-03-12T14:48:43Z</time>
      </trkpt>
      <trkpt lat="47.07806" lon="4.94656">
        <ele>209.1</ele>
        <time>2020-03-12T14:48:51Z</time>
      </trkpt>
      <trkpt lat="47.07812" lon="4.94647">
        <ele>209.2</ele>
        <time>2020-03-12T14:48:59Z</time>
      </trkpt>
      <trkpt lat="47.07819" lon="4.94636">
        <ele>209.6</ele>
        <time>2020-03-12T14:49:08Z</time>
      </trkpt>
      <trkpt lat="47.07824" lon="4.94625">
        <ele>210.4</ele>
        <time>2020-03-12T14:49:17Z</time>
      </trkpt>
      <trkpt lat="47.07832" lon="4.94619">
        <ele>210.8</ele>
        <time>2020-03-12T14:49:31Z</time>
      </trkpt>
      <trkpt lat="47.07837" lon="4.94607">
        <ele>210</ele>
        <time>2020-03-12T14:49:41Z</time>
      </trkpt>
      <trkpt lat="47.07846" lon="4.946">
        <ele>210.3</ele>
        <time>2020-03-12T14:49:50Z</time>
      </trkpt>
      <trkpt lat="47.07856" lon="4.94598">
        <ele>210.1</ele>
        <time>2020-03-12T14:50:00Z</time>
      </trkpt>
      <trkpt lat="47.07864" lon="4.94604">
        <ele>210.2</ele>
        <time>2020-03-12T14:50:10Z</time>
      </trkpt>
      <trkpt lat="47.07872" lon="4.94614">
        <ele>209.2</ele>
        <time>2020-03-12T14:50:20Z</time>
      </trkpt>
      <trkpt lat="47.0788" lon="4.94624">
        <ele>208.6</ele>
        <time>2020-03-12T14:50:28Z</time>
      </trkpt>
      <trkpt lat="47.07889" lon="4.94626">
        <ele>208.4</ele>
        <time>2020-03-12T14:50:37Z</time>
      </trkpt>
      <trkpt lat="47.07896" lon="4.94635">
        <ele>208</ele>
        <time>2020-03-12T14:50:46Z</time>
      </trkpt>
      <trkpt lat="47.07905" lon="4.94639">
        <ele>207.3</ele>
        <time>2020-03-12T14:50:55Z</time>
      </trkpt>
      <trkpt lat="47.07914" lon="4.94644">
        <ele>206.7</ele>
        <time>2020-03-12T14:51:03Z</time>
      </trkpt>
      <trkpt lat="47.07922" lon="4.94653">
        <ele>205.9</ele>
        <time>2020-03-12T14:51:10Z</time>
      </trkpt>
      <trkpt lat="47.07931" lon="4.94656">
        <ele>205.7</ele>
        <time>2020-03-12T14:51:19Z</time>
      </trkpt>
      <trkpt lat="47.07939" lon="4.94663">
        <ele>205.3</ele>
        <time>2020-03-12T14:51:29Z</time>
      </trkpt>
      <trkpt lat="47.07948" lon="4.94666">
        <ele>205.4</ele>
        <time>2020-03-12T14:51:39Z</time>
      </trkpt>
      <trkpt lat="47.07955" lon="4.94676">
        <ele>205</ele>
        <time>2020-03-12T14:51:46Z</time>
      </trkpt>
      <trkpt lat="47.07965" lon="4.94681">
        <ele>204</ele>
        <time>2020-03-12T14:51:55Z</time>
      </trkpt>
      <trkpt lat="47.07973" lon="4.94689">
        <ele>202.7</ele>
        <time>2020-03-12T14:52:02Z</time>
      </trkpt>
      <trkpt lat="47.07982" lon="4.94695">
        <ele>203.2</ele>
        <time>2020-03-12T14:52:10Z</time>
      </trkpt>
      <trkpt lat="47.07991" lon="4.94699">
        <ele>203.5</ele>
        <time>2020-03-12T14:52:20Z</time>
      </trkpt>
      <trkpt lat="47.08" lon="4.94704">
        <ele>204.3</ele>
        <time>2020-03-12T14:52:28Z</time>
      </trkpt>
      <trkpt lat="47.08009" lon="4.94711">
        <ele>205.9</ele>
        <time>2020-03-12T14:52:36Z</time>
      </trkpt>
      <trkpt lat="47.08018" lon="4.94714">
        <ele>206.2</ele>
        <time>2020-03-12T14:52:45Z</time>
      </trkpt>
      <trkpt lat="47.08026" lon="4.94721">
        <ele>206.6</ele>
        <time>2020-03-12T14:52:53Z</time>
      </trkpt>
      <trkpt lat="47.08035" lon="4.94727">
        <ele>207.5</ele>
        <time>2020-03-12T14:53:01Z</time>
      </trkpt>
      <trkpt lat="47.08044" lon="4.9473">
        <ele>206.3</ele>
        <time>2020-03-12T14:53:11Z</time>
      </trkpt>
      <trkpt lat="47.08053" lon="4.94733">
        <ele>205.4</ele>
        <time>2020-03-12T14:53:21Z</time>
      </trkpt>
      <trkpt lat="47.0806" lon="4.94744">
        <ele>204.6</ele>
        <time>2020-03-12T14:53:28Z</time>
      </trkpt>
      <trkpt lat="47.08068" lon="4.94752">
        <ele>204</ele>
        <time>2020-03-12T14:53:37Z</time>
      </trkpt>
      <trkpt lat="47.08077" lon="4.94759">
        <ele>202.7</ele>
        <time>2020-03-12T14:53:45Z</time>
      </trkpt>
      <trkpt lat="47.08086" lon="4.94765">
        <ele>203.2</ele>
        <time>2020-03-12T14:53:53Z</time>
      </trkpt>
      <trkpt lat="47.08094" lon="4.94769">
        <ele>204.4</ele>
        <time>2020-03-12T14:54:01Z</time>
      </trkpt>
      <trkpt lat="47.08103" lon="4.94774">
        <ele>205.2</ele>
        <time>2020-03-12T14:54:09Z</time>
      </trkpt>
      <trkpt lat="47.08111" lon="4.9478">
        <ele>206.3</ele>
        <time>2020-03-12T14:54:17Z</time>
      </trkpt>
      <trkpt lat="47.0812" lon="4.94784">
        <ele>209.1</ele>
        <time>2020-03-12T14:54:37Z</time>
      </trkpt>
      <trkpt lat="47.0813" lon="4.94787">
        <ele>208.9</ele>
        <time>2020-03-12T14:54:50Z</time>
      </trkpt>
      <trkpt lat="47.08139" lon="4.94792">
        <ele>209.2</ele>
        <time>2020-03-12T14:55:04Z</time>
      </trkpt>
      <trkpt lat="47.08147" lon="4.948">
        <ele>208.4</ele>
        <time>2020-03-12T14:55:15Z</time>
      </trkpt>
      <trkpt lat="47.08154" lon="4.94811">
        <ele>208.2</ele>
        <time>2020-03-12T14:55:22Z</time>
      </trkpt>
      <trkpt lat="47.08162" lon="4.94816">
        <ele>208.8</ele>
        <time>2020-03-12T14:55:30Z</time>
      </trkpt>
      <trkpt lat="47.08171" lon="4.94819">
        <ele>209.3</ele>
        <time>2020-03-12T14:55:40Z</time>
      </trkpt>
      <trkpt lat="47.08181" lon="4.94826">
        <ele>209.1</ele>
        <time>2020-03-12T14:55:50Z</time>
      </trkpt>
      <trkpt lat="47.08189" lon="4.94831">
        <ele>208.9</ele>
        <time>2020-03-12T14:55:59Z</time>
      </trkpt>
      <trkpt lat="47.08198" lon="4.94837">
        <ele>207.9</ele>
        <time>2020-03-12T14:56:09Z</time>
      </trkpt>
      <trkpt lat="47.08206" lon="4.94845">
        <ele>206.3</ele>
        <time>2020-03-12T14:56:18Z</time>
      </trkpt>
      <trkpt lat="47.08215" lon="4.94849">
        <ele>206</ele>
        <time>2020-03-12T14:56:27Z</time>
      </trkpt>
      <trkpt lat="47.08223" lon="4.94853">
        <ele>207.2</ele>
        <time>2020-03-12T14:56:36Z</time>
      </trkpt>
      <trkpt lat="47.08232" lon="4.94859">
        <ele>206.9</ele>
        <time>2020-03-12T14:56:44Z</time>
      </trkpt>
      <trkpt lat="47.0824" lon="4.94867">
        <ele>207.3</ele>
        <time>2020-03-12T14:56:53Z</time>
      </trkpt>
      <trkpt lat="47.08249" lon="4.94873">
        <ele>208.2</ele>
        <time>2020-03-12T14:57:02Z</time>
      </trkpt>
      <trkpt lat="47.08258" lon="4.94877">
        <ele>209.2</ele>
        <time>2020-03-12T14:57:11Z</time>
      </trkpt>
      <trkpt lat="47.08266" lon="4.94885">
        <ele>209</ele>
        <time>2020-03-12T14:57:20Z</time>
      </trkpt>
      <trkpt lat="47.08275" lon="4.9489">
        <ele>210.1</ele>
        <time>2020-03-12T14:57:30Z</time>
      </trkpt>
      <trkpt lat="47.0828" lon="4.94905">
        <ele>210.5</ele>
        <time>2020-03-12T15:00:00Z</time>
      </trkpt>
      <trkpt lat="47.08289" lon="4.94906">
        <ele>207.7</ele>
        <time>2020-03-12T15:00:15Z</time>
      </trkpt>
      <trkpt lat="47.08299" lon="4.94908">
        <ele>209.2</ele>
        <time>2020-03-12T15:00:36Z</time>
      </trkpt>
      <trkpt lat="47.08306" lon="4.94915">
        <ele>210</ele>
        <time>2020-03-12T15:00:44Z</time>
      </trkpt>
      <trkpt lat="47.08315" lon="4.94911">
        <ele>209.3</ele>
        <time>2020-03-12T15:00:57Z</time>
      </trkpt>
      <trkpt lat="47.08324" lon="4.94918">
        <ele>210.5</ele>
        <time>2020-03-12T15:01:05Z</time>
      </trkpt>
      <trkpt lat="47.08333" lon="4.94924">
        <ele>209.9</ele>
        <time>2020-03-12T15:01:13Z</time>
      </trkpt>
      <trkpt lat="47.08342" lon="4.9493">
        <ele>210.6</ele>
        <time>2020-03-12T15:01:20Z</time>
      </trkpt>
      <trkpt lat="47.0835" lon="4.94935">
        <ele>209.5</ele>
        <time>2020-03-12T15:01:28Z</time>
      </trkpt>
      <trkpt lat="47.08359" lon="4.9494">
        <ele>210.4</ele>
        <time>2020-03-12T15:01:38Z</time>
      </trkpt>
      <trkpt lat="47.08367" lon="4.94949">
        <ele>210.8</ele>
        <time>2020-03-12T15:01:48Z</time>
      </trkpt>
      <trkpt lat="47.08374" lon="4.94957">
        <ele>209.8</ele>
        <time>2020-03-12T15:01:57Z</time>
      </trkpt>
      <trkpt lat="47.08382" lon="4.94964">
        <ele>208</ele>
        <time>2020-03-12T15:02:07Z</time>
      </trkpt>
      <trkpt lat="47.08392" lon="4.94963">
        <ele>206.5</ele>
        <time>2020-03-12T15:04:29Z</time>
      </trkpt>
      <trkpt lat="47.08401" lon="4.94966">
        <ele>201.7</ele>
        <time>2020-03-12T15:04:45Z</time>
      </trkpt>
      <trkpt lat="47.0841" lon="4.94971">
        <ele>199.6</ele>
        <time>2020-03-12T15:04:55Z</time>
      </trkpt>
      <trkpt lat="47.08419" lon="4.94975">
        <ele>197.7</ele>
        <time>2020-03-12T15:05:04Z</time>
      </trkpt>
      <trkpt lat="47.08427" lon="4.94982">
        <ele>196.4</ele>
        <time>2020-03-12T15:05:11Z</time>
      </trkpt>
      <trkpt lat="47.08436" lon="4.94986">
        <ele>196.3</ele>
        <time>2020-03-12T15:05:21Z</time>
      </trkpt>
      <trkpt lat="47.08445" lon="4.94992">
        <ele>195.5</ele>
        <time>2020-03-12T15:05:30Z</time>
      </trkpt>
      <trkpt lat="47.08453" lon="4.94999">
        <ele>195.8</ele>
        <time>2020-03-12T15:05:39Z</time>
      </trkpt>
      <trkpt lat="47.08462" lon="4.95005">
        <ele>196.3</ele>
        <time>2020-03-12T15:05:48Z</time>
      </trkpt>
      <trkpt lat="47.0847" lon="4.95013">
        <ele>197.4</ele>
        <time>2020-03-12T15:05:56Z</time>
      </trkpt>
      <trkpt lat="47.08478" lon="4.95019">
        <ele>197.5</ele>
        <time>2020-03-12T15:06:04Z</time>
      </trkpt>
      <trkpt lat="47.08487" lon="4.95027">
        <ele>198.7</ele>
        <time>2020-03-12T15:06:12Z</time>
      </trkpt>
      <trkpt lat="47.08495" lon="4.95034">
        <ele>199.6</ele>
        <time>2020-03-12T15:06:20Z</time>
      </trkpt>
      <trkpt lat="47.08504" lon="4.95039">
        <ele>202</ele>
        <time>2020-03-12T15:06:28Z</time>
      </trkpt>
      <trkpt lat="47.08513" lon="4.95045">
        <ele>204.7</ele>
        <time>2020-03-12T15:06:37Z</time>
      </trkpt>
      <trkpt lat="47.08521" lon="4.9505">
        <ele>205.5</ele>
        <time>2020-03-12T15:06:45Z</time>
      </trkpt>
      <trkpt lat="47.0853" lon="4.95055">
        <ele>205.9</ele>
        <time>2020-03-12T15:06:54Z</time>
      </trkpt>
      <trkpt lat="47.08538" lon="4.9506">
        <ele>206.1</ele>
        <time>2020-03-12T15:07:02Z</time>
      </trkpt>
      <trkpt lat="47.08547" lon="4.95067">
        <ele>206.1</ele>
        <time>2020-03-12T15:07:11Z</time>
      </trkpt>
      <trkpt lat="47.08556" lon="4.95071">
        <ele>205.6</ele>
        <time>2020-03-12T15:07:20Z</time>
      </trkpt>
      <trkpt lat="47.08565" lon="4.95074">
        <ele>205.9</ele>
        <time>2020-03-12T15:07:29Z</time>
      </trkpt>
      <trkpt lat="47.08574" lon="4.95082">
        <ele>206.2</ele>
        <time>2020-03-12T15:07:39Z</time>
      </trkpt>
      <trkpt lat="47.08582" lon="4.95088">
        <ele>207</ele>
        <time>2020-03-12T15:07:48Z</time>
      </trkpt>
      <trkpt lat="47.08591" lon="4.95094">
        <ele>206.3</ele>
        <time>2020-03-12T15:07:57Z</time>
      </trkpt>
      <trkpt lat="47.08599" lon="4.951">
        <ele>205.4</ele>
        <time>2020-03-12T15:08:05Z</time>
      </trkpt>
      <trkpt lat="47.08608" lon="4.95106">
        <ele>206</ele>
        <time>2020-03-12T15:08:13Z</time>
      </trkpt>
      <trkpt lat="47.08617" lon="4.95112">
        <ele>206.5</ele>
        <time>2020-03-12T15:08:21Z</time>
      </trkpt>
      <trkpt lat="47.08625" lon="4.95119">
        <ele>206.7</ele>
        <time>2020-03-12T15:08:29Z</time>
      </trkpt>
      <trkpt lat="47.08633" lon="4.95126">
        <ele>206.7</ele>
        <time>2020-03-12T15:08:37Z</time>
      </trkpt>
      <trkpt lat="47.08642" lon="4.95129">
        <ele>205.5</ele>
        <time>2020-03-12T15:08:47Z</time>
      </trkpt>
      <trkpt lat="47.08649" lon="4.95138">
        <ele>204.6</ele>
        <time>2020-03-12T15:08:55Z</time>
      </trkpt>
      <trkpt lat="47.08658" lon="4.95143">
        <ele>205.4</ele>
        <time>2020-03-12T15:09:03Z</time>
      </trkpt>
      <trkpt lat="47.08667" lon="4.95148">
        <ele>205.1</ele>
        <time>2020-03-12T15:09:12Z</time>
      </trkpt>
      <trkpt lat="47.08677" lon="4.95153">
        <ele>204.7</ele>
        <time>2020-03-12T15:09:21Z</time>
      </trkpt>
      <trkpt lat="47.08685" lon="4.95157">
        <ele>204.3</ele>
        <time>2020-03-12T15:09:29Z</time>
      </trkpt>
      <trkpt lat="47.08693" lon="4.95163">
        <ele>203.8</ele>
        <time>2020-03-12T15:09:38Z</time>
      </trkpt>
      <trkpt lat="47.08702" lon="4.95167">
        <ele>204.1</ele>
        <time>2020-03-12T15:09:47Z</time>
      </trkpt>
      <trkpt lat="47.0871" lon="4.95173">
        <ele>205</ele>
        <time>2020-03-12T15:10:36Z</time>
      </trkpt>
      <trkpt lat="47.0872" lon="4.95176">
        <ele>204.2</ele>
        <time>2020-03-12T15:10:46Z</time>
      </trkpt>
      <trkpt lat="47.08728" lon="4.95182">
        <ele>205.5</ele>
        <time>2020-03-12T15:10:55Z</time>
      </trkpt>
      <trkpt lat="47.08737" lon="4.95187">
        <ele>206.8</ele>
        <time>2020-03-12T15:11:03Z</time>
      </trkpt>
      <trkpt lat="47.08745" lon="4.95193">
        <ele>207.1</ele>
        <time>2020-03-12T15:11:11Z</time>
      </trkpt>
      <trkpt lat="47.08753" lon="4.95201">
        <ele>207.2</ele>
        <time>2020-03-12T15:11:20Z</time>
      </trkpt>
      <trkpt lat="47.08762" lon="4.95207">
        <ele>207.1</ele>
        <time>2020-03-12T15:11:29Z</time>
      </trkpt>
      <trkpt lat="47.08771" lon="4.95212">
        <ele>206.8</ele>
        <time>2020-03-12T15:11:38Z</time>
      </trkpt>
      <trkpt lat="47.08778" lon="4.95219">
        <ele>206.1</ele>
        <time>2020-03-12T15:11:46Z</time>
      </trkpt>
      <trkpt lat="47.08787" lon="4.95226">
        <ele>206.5</ele>
        <time>2020-03-12T15:11:55Z</time>
      </trkpt>
      <trkpt lat="47.08796" lon="4.95231">
        <ele>206.1</ele>
        <time>2020-03-12T15:12:04Z</time>
      </trkpt>
      <trkpt lat="47.08805" lon="4.95236">
        <ele>207</ele>
        <time>2020-03-12T15:12:12Z</time>
      </trkpt>
      <trkpt lat="47.08814" lon="4.95241">
        <ele>207.5</ele>
        <time>2020-03-12T15:12:20Z</time>
      </trkpt>
      <trkpt lat="47.08822" lon="4.95247">
        <ele>207.3</ele>
        <time>2020-03-12T15:12:28Z</time>
      </trkpt>
      <trkpt lat="47.08831" lon="4.95252">
        <ele>207</ele>
        <time>2020-03-12T15:12:36Z</time>
      </trkpt>
      <trkpt lat="47.0884" lon="4.95257">
        <ele>206.5</ele>
        <time>2020-03-12T15:12:45Z</time>
      </trkpt>
      <trkpt lat="47.08849" lon="4.95263">
        <ele>205.9</ele>
        <time>2020-03-12T15:12:54Z</time>
      </trkpt>
      <trkpt lat="47.08858" lon="4.95268">
        <ele>206</ele>
        <time>2020-03-12T15:13:02Z</time>
      </trkpt>
      <trkpt lat="47.08866" lon="4.95273">
        <ele>206.2</ele>
        <time>2020-03-12T15:13:10Z</time>
      </trkpt>
      <trkpt lat="47.08875" lon="4.95279">
        <ele>206.4</ele>
        <time>2020-03-12T15:13:19Z</time>
      </trkpt>
      <trkpt lat="47.08883" lon="4.95286">
        <ele>207.9</ele>
        <time>2020-03-12T15:13:28Z</time>
      </trkpt>
      <trkpt lat="47.08892" lon="4.95292">
        <ele>208.2</ele>
        <time>2020-03-12T15:13:36Z</time>
      </trkpt>
      <trkpt lat="47.089" lon="4.95296">
        <ele>207.8</ele>
        <time>2020-03-12T15:13:44Z</time>
      </trkpt>
      <trkpt lat="47.08909" lon="4.95302">
        <ele>207</ele>
        <time>2020-03-12T15:13:53Z</time>
      </trkpt>
      <trkpt lat="47.08919" lon="4.95308">
        <ele>206.7</ele>
        <time>2020-03-12T15:14:02Z</time>
      </trkpt>
      <trkpt lat="47.08927" lon="4.95313">
        <ele>207.5</ele>
        <time>2020-03-12T15:14:11Z</time>
      </trkpt>
      <trkpt lat="47.08936" lon="4.95318">
        <ele>208.8</ele>
        <time>2020-03-12T15:14:22Z</time>
      </trkpt>
      <trkpt lat="47.08944" lon="4.95324">
        <ele>210.8</ele>
        <time>2020-03-12T15:14:31Z</time>
      </trkpt>
      <trkpt lat="47.08952" lon="4.9533">
        <ele>211.5</ele>
        <time>2020-03-12T15:14:40Z</time>
      </trkpt>
      <trkpt lat="47.08961" lon="4.95336">
        <ele>210.6</ele>
        <time>2020-03-12T15:14:49Z</time>
      </trkpt>
      <trkpt lat="47.08969" lon="4.95343">
        <ele>210</ele>
        <time>2020-03-12T15:14:59Z</time>
      </trkpt>
      <trkpt lat="47.08979" lon="4.95347">
        <ele>209.5</ele>
        <time>2020-03-12T15:15:09Z</time>
      </trkpt>
      <trkpt lat="47.08987" lon="4.95354">
        <ele>209.7</ele>
        <time>2020-03-12T15:15:18Z</time>
      </trkpt>
      <trkpt lat="47.08996" lon="4.9536">
        <ele>210.6</ele>
        <time>2020-03-12T15:15:28Z</time>
      </trkpt>
      <trkpt lat="47.09004" lon="4.95365">
        <ele>212.4</ele>
        <time>2020-03-12T15:15:37Z</time>
      </trkpt>
      <trkpt lat="47.09014" lon="4.95369">
        <ele>212.4</ele>
        <time>2020-03-12T15:15:46Z</time>
      </trkpt>
      <trkpt lat="47.09022" lon="4.95375">
        <ele>212.8</ele>
        <time>2020-03-12T15:15:54Z</time>
      </trkpt>
      <trkpt lat="47.09031" lon="4.95381">
        <ele>213.4</ele>
        <time>2020-03-12T15:16:02Z</time>
      </trkpt>
      <trkpt lat="47.09039" lon="4.95388">
        <ele>213</ele>
        <time>2020-03-12T15:16:10Z</time>
      </trkpt>
      <trkpt lat="47.09047" lon="4.95397">
        <ele>211.7</ele>
        <time>2020-03-12T15:16:31Z</time>
      </trkpt>
      <trkpt lat="47.09056" lon="4.95402">
        <ele>210.4</ele>
        <time>2020-03-12T15:16:41Z</time>
      </trkpt>
      <trkpt lat="47.09065" lon="4.95405">
        <ele>210.8</ele>
        <time>2020-03-12T15:16:50Z</time>
      </trkpt>
      <trkpt lat="47.09074" lon="4.95412">
        <ele>211.2</ele>
        <time>2020-03-12T15:16:59Z</time>
      </trkpt>
      <trkpt lat="47.09082" lon="4.95419">
        <ele>212.3</ele>
        <time>2020-03-12T15:17:07Z</time>
      </trkpt>
      <trkpt lat="47.09091" lon="4.95424">
        <ele>212.8</ele>
        <time>2020-03-12T15:17:24Z</time>
      </trkpt>
      <trkpt lat="47.091" lon="4.95429">
        <ele>212.3</ele>
        <time>2020-03-12T15:17:34Z</time>
      </trkpt>
      <trkpt lat="47.09109" lon="4.95433">
        <ele>211.1</ele>
        <time>2020-03-12T15:17:43Z</time>
      </trkpt>
      <trkpt lat="47.09118" lon="4.9544">
        <ele>210.3</ele>
        <time>2020-03-12T15:17:52Z</time>
      </trkpt>
      <trkpt lat="47.09126" lon="4.95446">
        <ele>210.2</ele>
        <time>2020-03-12T15:18:00Z</time>
      </trkpt>
      <trkpt lat="47.09134" lon="4.95452">
        <ele>210.4</ele>
        <time>2020-03-12T15:18:08Z</time>
      </trkpt>
      <trkpt lat="47.09144" lon="4.95458">
        <ele>210.8</ele>
        <time>2020-03-12T15:18:16Z</time>
      </trkpt>
      <trkpt lat="47.09153" lon="4.95464">
        <ele>211</ele>
        <time>2020-03-12T15:18:25Z</time>
      </trkpt>
      <trkpt lat="47.09161" lon="4.9547">
        <ele>211.7</ele>
        <time>2020-03-12T15:18:33Z</time>
      </trkpt>
      <trkpt lat="47.0917" lon="4.95476">
        <ele>214</ele>
        <time>2020-03-12T15:18:41Z</time>
      </trkpt>
      <trkpt lat="47.09178" lon="4.95483">
        <ele>216.3</ele>
        <time>2020-03-12T15:18:48Z</time>
      </trkpt>
      <trkpt lat="47.09186" lon="4.95489">
        <ele>214.5</ele>
        <time>2020-03-12T15:19:14Z</time>
      </trkpt>
      <trkpt lat="47.0919" lon="4.95502">
        <ele>211.2</ele>
        <time>2020-03-12T15:19:25Z</time>
      </trkpt>
      <trkpt lat="47.09183" lon="4.95512">
        <ele>209.2</ele>
        <time>2020-03-12T15:19:43Z</time>
      </trkpt>
      <trkpt lat="47.09176" lon="4.95522">
        <ele>209.3</ele>
        <time>2020-03-12T15:19:52Z</time>
      </trkpt>
      <trkpt lat="47.0917" lon="4.95531">
        <ele>208.7</ele>
        <time>2020-03-12T15:20:00Z</time>
      </trkpt>
      <trkpt lat="47.09164" lon="4.95543">
        <ele>208.3</ele>
        <time>2020-03-12T15:20:08Z</time>
      </trkpt>
      <trkpt lat="47.09158" lon="4.95553">
        <ele>207.7</ele>
        <time>2020-03-12T15:20:14Z</time>
      </trkpt>
      <trkpt lat="47.09151" lon="4.95564">
        <ele>206.7</ele>
        <time>2020-03-12T15:20:22Z</time>
      </trkpt>
      <trkpt lat="47.09145" lon="4.95576">
        <ele>206.7</ele>
        <time>2020-03-12T15:20:31Z</time>
      </trkpt>
      <trkpt lat="47.0914" lon="4.95587">
        <ele>206.7</ele>
        <time>2020-03-12T15:20:39Z</time>
      </trkpt>
      <trkpt lat="47.09134" lon="4.95598">
        <ele>206.6</ele>
        <time>2020-03-12T15:20:48Z</time>
      </trkpt>
      <trkpt lat="47.09128" lon="4.95609">
        <ele>205.9</ele>
        <time>2020-03-12T15:20:57Z</time>
      </trkpt>
      <trkpt lat="47.09122" lon="4.9562">
        <ele>204.8</ele>
        <time>2020-03-12T15:21:06Z</time>
      </trkpt>
      <trkpt lat="47.09116" lon="4.95631">
        <ele>204.1</ele>
        <time>2020-03-12T15:21:16Z</time>
      </trkpt>
      <trkpt lat="47.09111" lon="4.95642">
        <ele>205.3</ele>
        <time>2020-03-12T15:21:26Z</time>
      </trkpt>
      <trkpt lat="47.09104" lon="4.95653">
        <ele>204.8</ele>
        <time>2020-03-12T15:21:35Z</time>
      </trkpt>
      <trkpt lat="47.09098" lon="4.95664">
        <ele>204.6</ele>
        <time>2020-03-12T15:21:43Z</time>
      </trkpt>
      <trkpt lat="47.09092" lon="4.95675">
        <ele>204</ele>
        <time>2020-03-12T15:21:51Z</time>
      </trkpt>
      <trkpt lat="47.09087" lon="4.95686">
        <ele>204.5</ele>
        <time>2020-03-12T15:22:00Z</time>
      </trkpt>
      <trkpt lat="47.09081" lon="4.95696">
        <ele>205.1</ele>
        <time>2020-03-12T15:22:09Z</time>
      </trkpt>
      <trkpt lat="47.09074" lon="4.95707">
        <ele>205.7</ele>
        <time>2020-03-12T15:22:18Z</time>
      </trkpt>
      <trkpt lat="47.09066" lon="4.95714">
        <ele>205</ele>
        <time>2020-03-12T15:22:26Z</time>
      </trkpt>
      <trkpt lat="47.09056" lon="4.95715">
        <ele>204.4</ele>
        <time>2020-03-12T15:22:34Z</time>
      </trkpt>
      <trkpt lat="47.09047" lon="4.95711">
        <ele>203.2</ele>
        <time>2020-03-12T15:22:42Z</time>
      </trkpt>
      <trkpt lat="47.09038" lon="4.95709">
        <ele>202.7</ele>
        <time>2020-03-12T15:23:00Z</time>
      </trkpt>
      <trkpt lat="47.0903" lon="4.95702">
        <ele>201.6</ele>
        <time>2020-03-12T15:23:09Z</time>
      </trkpt>
      <trkpt lat="47.09021" lon="4.95698">
        <ele>200.2</ele>
        <time>2020-03-12T15:23:18Z</time>
      </trkpt>
      <trkpt lat="47.09011" lon="4.95695">
        <ele>199.3</ele>
        <time>2020-03-12T15:23:27Z</time>
      </trkpt>
      <trkpt lat="47.09001" lon="4.95692">
        <ele>198.6</ele>
        <time>2020-03-12T15:23:36Z</time>
      </trkpt>
      <trkpt lat="47.08992" lon="4.95688">
        <ele>198.4</ele>
        <time>2020-03-12T15:23:45Z</time>
      </trkpt>
      <trkpt lat="47.08983" lon="4.95684">
        <ele>198.9</ele>
        <time>2020-03-12T15:23:53Z</time>
      </trkpt>
      <trkpt lat="47.08974" lon="4.9568">
        <ele>199.7</ele>
        <time>2020-03-12T15:24:01Z</time>
      </trkpt>
      <trkpt lat="47.08964" lon="4.95676">
        <ele>198.9</ele>
        <time>2020-03-12T15:24:10Z</time>
      </trkpt>
      <trkpt lat="47.08956" lon="4.95669">
        <ele>199.9</ele>
        <time>2020-03-12T15:24:32Z</time>
      </trkpt>
      <trkpt lat="47.08946" lon="4.9567">
        <ele>200.2</ele>
        <time>2020-03-12T15:24:41Z</time>
      </trkpt>
      <trkpt lat="47.08937" lon="4.95667">
        <ele>202.6</ele>
        <time>2020-03-12T15:24:51Z</time>
      </trkpt>
      <trkpt lat="47.08927" lon="4.95664">
        <ele>202.8</ele>
        <time>2020-03-12T15:25:00Z</time>
      </trkpt>
      <trkpt lat="47.08918" lon="4.95659">
        <ele>203.3</ele>
        <time>2020-03-12T15:25:08Z</time>
      </trkpt>
      <trkpt lat="47.08909" lon="4.95657">
        <ele>205.2</ele>
        <time>2020-03-12T15:25:20Z</time>
      </trkpt>
      <trkpt lat="47.089" lon="4.95651">
        <ele>205.8</ele>
        <time>2020-03-12T15:25:28Z</time>
      </trkpt>
      <trkpt lat="47.0889" lon="4.95648">
        <ele>206</ele>
        <time>2020-03-12T15:25:46Z</time>
      </trkpt>
      <trkpt lat="47.08881" lon="4.95644">
        <ele>205.4</ele>
        <time>2020-03-12T15:25:54Z</time>
      </trkpt>
      <trkpt lat="47.08872" lon="4.95641">
        <ele>205.7</ele>
        <time>2020-03-12T15:26:02Z</time>
      </trkpt>
      <trkpt lat="47.08864" lon="4.95637">
        <ele>205.9</ele>
        <time>2020-03-12T15:26:10Z</time>
      </trkpt>
      <trkpt lat="47.08854" lon="4.95633">
        <ele>206.7</ele>
        <time>2020-03-12T15:26:19Z</time>
      </trkpt>
      <trkpt lat="47.08844" lon="4.95628">
        <ele>207.2</ele>
        <time>2020-03-12T15:26:27Z</time>
      </trkpt>
      <trkpt lat="47.08835" lon="4.95624">
        <ele>206.5</ele>
        <time>2020-03-12T15:26:35Z</time>
      </trkpt>
      <trkpt lat="47.08827" lon="4.95621">
        <ele>206.8</ele>
        <time>2020-03-12T15:26:43Z</time>
      </trkpt>
      <trkpt lat="47.08817" lon="4.95617">
        <ele>208.3</ele>
        <time>2020-03-12T15:26:51Z</time>
      </trkpt>
      <trkpt lat="47.08808" lon="4.95613">
        <ele>207.1</ele>
        <time>2020-03-12T15:27:00Z</time>
      </trkpt>
      <trkpt lat="47.08798" lon="4.95612">
        <ele>205.6</ele>
        <time>2020-03-12T15:27:10Z</time>
      </trkpt>
      <trkpt lat="47.08788" lon="4.95609">
        <ele>205.8</ele>
        <time>2020-03-12T15:27:19Z</time>
      </trkpt>
      <trkpt lat="47.08779" lon="4.95609">
        <ele>205.3</ele>
        <time>2020-03-12T15:27:28Z</time>
      </trkpt>
      <trkpt lat="47.0877" lon="4.95607">
        <ele>206.3</ele>
        <time>2020-03-12T15:27:37Z</time>
      </trkpt>
      <trkpt lat="47.08761" lon="4.95602">
        <ele>205.4</ele>
        <time>2020-03-12T15:28:21Z</time>
      </trkpt>
      <trkpt lat="47.08752" lon="4.95604">
        <ele>204.7</ele>
        <time>2020-03-12T15:28:29Z</time>
      </trkpt>
      <trkpt lat="47.08742" lon="4.95602">
        <ele>204.6</ele>
        <time>2020-03-12T15:28:37Z</time>
      </trkpt>
      <trkpt lat="47.08733" lon="4.95599">
        <ele>204.3</ele>
        <time>2020-03-12T15:28:45Z</time>
      </trkpt>
      <trkpt lat="47.08723" lon="4.95598">
        <ele>202.4</ele>
        <time>2020-03-12T15:28:54Z</time>
      </trkpt>
      <trkpt lat="47.08714" lon="4.95596">
        <ele>202</ele>
        <time>2020-03-12T15:29:03Z</time>
      </trkpt>
      <trkpt lat="47.08704" lon="4.95594">
        <ele>204.2</ele>
        <time>2020-03-12T15:29:11Z</time>
      </trkpt>
      <trkpt lat="47.08694" lon="4.9559">
        <ele>206</ele>
        <time>2020-03-12T15:29:24Z</time>
      </trkpt>
      <trkpt lat="47.08685" lon="4.95589">
        <ele>206.6</ele>
        <time>2020-03-12T15:29:32Z</time>
      </trkpt>
      <trkpt lat="47.08676" lon="4.95587">
        <ele>206.7</ele>
        <time>2020-03-12T15:29:40Z</time>
      </trkpt>
      <trkpt lat="47.08666" lon="4.95584">
        <ele>205.9</ele>
        <time>2020-03-12T15:29:49Z</time>
      </trkpt>
      <trkpt lat="47.08656" lon="4.95582">
        <ele>205.2</ele>
        <time>2020-03-12T15:29:58Z</time>
      </trkpt>
      <trkpt lat="47.08646" lon="4.95581">
        <ele>204.7</ele>
        <time>2020-03-12T15:30:07Z</time>
      </trkpt>
      <trkpt lat="47.08637" lon="4.95578">
        <ele>203.6</ele>
        <time>2020-03-12T15:30:15Z</time>
      </trkpt>
      <trkpt lat="47.08628" lon="4.95576">
        <ele>204</ele>
        <time>2020-03-12T15:30:23Z</time>
      </trkpt>
      <trkpt lat="47.08618" lon="4.95574">
        <ele>204.5</ele>
        <time>2020-03-12T15:30:31Z</time>
      </trkpt>
      <trkpt lat="47.08608" lon="4.95572">
        <ele>203.5</ele>
        <time>2020-03-12T15:30:40Z</time>
      </trkpt>
      <trkpt lat="47.08601" lon="4.95565">
        <ele>201.3</ele>
        <time>2020-03-12T15:31:29Z</time>
      </trkpt>
      <trkpt lat="47.08591" lon="4.95564">
        <ele>200</ele>
        <time>2020-03-12T15:31:39Z</time>
      </trkpt>
      <trkpt lat="47.08582" lon="4.95565">
        <ele>199.8</ele>
        <time>2020-03-12T15:31:46Z</time>
      </trkpt>
      <trkpt lat="47.08573" lon="4.95566">
        <ele>199.2</ele>
        <time>2020-03-12T15:31:53Z</time>
      </trkpt>
      <trkpt lat="47.08564" lon="4.95568">
        <ele>199.2</ele>
        <time>2020-03-12T15:31:58Z</time>
      </trkpt>
      <trkpt lat="47.08555" lon="4.9557">
        <ele>199</ele>
        <time>2020-03-12T15:32:05Z</time>
      </trkpt>
      <trkpt lat="47.08545" lon="4.95572">
        <ele>198.7</ele>
        <time>2020-03-12T15:32:13Z</time>
      </trkpt>
      <trkpt lat="47.08536" lon="4.95574">
        <ele>199</ele>
        <time>2020-03-12T15:32:21Z</time>
      </trkpt>
      <trkpt lat="47.08526" lon="4.95577">
        <ele>200.4</ele>
        <time>2020-03-12T15:32:30Z</time>
      </trkpt>
      <trkpt lat="47.08517" lon="4.95577">
        <ele>200.7</ele>
        <time>2020-03-12T15:32:41Z</time>
      </trkpt>
      <trkpt lat="47.08508" lon="4.95582">
        <ele>199.2</ele>
        <time>2020-03-12T15:32:51Z</time>
      </trkpt>
      <trkpt lat="47.08499" lon="4.95584">
        <ele>197.7</ele>
        <time>2020-03-12T15:33:00Z</time>
      </trkpt>
      <trkpt lat="47.0849" lon="4.95588">
        <ele>195.5</ele>
        <time>2020-03-12T15:33:09Z</time>
      </trkpt>
      <trkpt lat="47.08481" lon="4.95591">
        <ele>194.4</ele>
        <time>2020-03-12T15:33:18Z</time>
      </trkpt>
      <trkpt lat="47.08471" lon="4.95593">
        <ele>192.9</ele>
        <time>2020-03-12T15:33:27Z</time>
      </trkpt>
      <trkpt lat="47.08462" lon="4.95595">
        <ele>193.1</ele>
        <time>2020-03-12T15:33:36Z</time>
      </trkpt>
      <trkpt lat="47.08452" lon="4.95597">
        <ele>192.4</ele>
        <time>2020-03-12T15:33:45Z</time>
      </trkpt>
      <trkpt lat="47.08443" lon="4.95595">
        <ele>193.4</ele>
        <time>2020-03-12T15:34:33Z</time>
      </trkpt>
      <trkpt lat="47.08434" lon="4.95601">
        <ele>194.4</ele>
        <time>2020-03-12T15:34:41Z</time>
      </trkpt>
      <trkpt lat="47.08425" lon="4.95603">
        <ele>195.4</ele>
        <time>2020-03-12T15:34:48Z</time>
      </trkpt>
      <trkpt lat="47.08415" lon="4.95603">
        <ele>197.8</ele>
        <time>2020-03-12T15:34:55Z</time>
      </trkpt>
      <trkpt lat="47.08406" lon="4.95603">
        <ele>199.7</ele>
        <time>2020-03-12T15:35:02Z</time>
      </trkpt>
      <trkpt lat="47.08396" lon="4.95606">
        <ele>201.5</ele>
        <time>2020-03-12T15:35:10Z</time>
      </trkpt>
      <trkpt lat="47.08388" lon="4.95613">
        <ele>203.4</ele>
        <time>2020-03-12T15:35:18Z</time>
      </trkpt>
      <trkpt lat="47.0838" lon="4.95622">
        <ele>205.6</ele>
        <time>2020-03-12T15:35:26Z</time>
      </trkpt>
      <trkpt lat="47.08374" lon="4.95632">
        <ele>206.8</ele>
        <time>2020-03-12T15:35:33Z</time>
      </trkpt>
      <trkpt lat="47.08368" lon="4.95643">
        <ele>206.6</ele>
        <time>2020-03-12T15:35:41Z</time>
      </trkpt>
      <trkpt lat="47.08359" lon="4.9565">
        <ele>207.6</ele>
        <time>2020-03-12T15:35:49Z</time>
      </trkpt>
      <trkpt lat="47.08349" lon="4.95651">
        <ele>207.8</ele>
        <time>2020-03-12T15:35:57Z</time>
      </trkpt>
      <trkpt lat="47.08339" lon="4.95647">
        <ele>208.8</ele>
        <time>2020-03-12T15:36:05Z</time>
      </trkpt>
      <trkpt lat="47.0833" lon="4.95642">
        <ele>208.1</ele>
        <time>2020-03-12T15:36:14Z</time>
      </trkpt>
      <trkpt lat="47.08322" lon="4.95633">
        <ele>208.4</ele>
        <time>2020-03-12T15:36:21Z</time>
      </trkpt>
      <trkpt lat="47.08314" lon="4.95627">
        <ele>210</ele>
        <time>2020-03-12T15:36:29Z</time>
      </trkpt>
      <trkpt lat="47.08312" lon="4.95613">
        <ele>210.3</ele>
        <time>2020-03-12T15:37:24Z</time>
      </trkpt>
      <trkpt lat="47.08304" lon="4.9562">
        <ele>210.1</ele>
        <time>2020-03-12T15:37:36Z</time>
      </trkpt>
      <trkpt lat="47.08294" lon="4.95621">
        <ele>210.6</ele>
        <time>2020-03-12T15:37:44Z</time>
      </trkpt>
      <trkpt lat="47.08284" lon="4.95623">
        <ele>211.7</ele>
        <time>2020-03-12T15:37:50Z</time>
      </trkpt>
      <trkpt lat="47.08275" lon="4.95626">
        <ele>212</ele>
        <time>2020-03-12T15:37:56Z</time>
      </trkpt>
      <trkpt lat="47.08264" lon="4.95626">
        <ele>210.4</ele>
        <time>2020-03-12T15:38:03Z</time>
      </trkpt>
      <trkpt lat="47.08255" lon="4.95625">
        <ele>208.6</ele>
        <time>2020-03-12T15:38:12Z</time>
      </trkpt>
      <trkpt lat="47.08248" lon="4.95617">
        <ele>207.8</ele>
        <time>2020-03-12T15:38:52Z</time>
      </trkpt>
      <trkpt lat="47.08238" lon="4.95619">
        <ele>207.5</ele>
        <time>2020-03-12T15:39:01Z</time>
      </trkpt>
      <trkpt lat="47.08229" lon="4.95617">
        <ele>207.6</ele>
        <time>2020-03-12T15:39:10Z</time>
      </trkpt>
      <trkpt lat="47.08221" lon="4.9561">
        <ele>207.9</ele>
        <time>2020-03-12T15:39:25Z</time>
      </trkpt>
      <trkpt lat="47.08214" lon="4.95601">
        <ele>207.8</ele>
        <time>2020-03-12T15:39:40Z</time>
      </trkpt>
      <trkpt lat="47.08208" lon="4.95591">
        <ele>207</ele>
        <time>2020-03-12T15:40:16Z</time>
      </trkpt>
      <trkpt lat="47.082" lon="4.95585">
        <ele>205.6</ele>
        <time>2020-03-12T15:40:51Z</time>
      </trkpt>
      <trkpt lat="47.0819" lon="4.9558">
        <ele>204.8</ele>
        <time>2020-03-12T15:41:01Z</time>
      </trkpt>
      <trkpt lat="47.08182" lon="4.95574">
        <ele>203.1</ele>
        <time>2020-03-12T15:41:09Z</time>
      </trkpt>
      <trkpt lat="47.08173" lon="4.95567">
        <ele>203.1</ele>
        <time>2020-03-12T15:41:20Z</time>
      </trkpt>
      <trkpt lat="47.08164" lon="4.95563">
        <ele>203.7</ele>
        <time>2020-03-12T15:41:26Z</time>
      </trkpt>
      <trkpt lat="47.08154" lon="4.95557">
        <ele>203.6</ele>
        <time>2020-03-12T15:41:33Z</time>
      </trkpt>
      <trkpt lat="47.08145" lon="4.95552">
        <ele>202</ele>
        <time>2020-03-12T15:41:41Z</time>
      </trkpt>
      <trkpt lat="47.08135" lon="4.95548">
        <ele>201.4</ele>
        <time>2020-03-12T15:41:49Z</time>
      </trkpt>
      <trkpt lat="47.08127" lon="4.95543">
        <ele>202</ele>
        <time>2020-03-12T15:41:56Z</time>
      </trkpt>
      <trkpt lat="47.08118" lon="4.95538">
        <ele>203.4</ele>
        <time>2020-03-12T15:42:03Z</time>
      </trkpt>
      <trkpt lat="47.0811" lon="4.95532">
        <ele>204.1</ele>
        <time>2020-03-12T15:42:10Z</time>
      </trkpt>
      <trkpt lat="47.08101" lon="4.95526">
        <ele>204.7</ele>
        <time>2020-03-12T15:42:18Z</time>
      </trkpt>
      <trkpt lat="47.08093" lon="4.9552">
        <ele>205.2</ele>
        <time>2020-03-12T15:42:26Z</time>
      </trkpt>
      <trkpt lat="47.08084" lon="4.95514">
        <ele>205.3</ele>
        <time>2020-03-12T15:42:34Z</time>
      </trkpt>
      <trkpt lat="47.08076" lon="4.95506">
        <ele>206.8</ele>
        <time>2020-03-12T15:42:42Z</time>
      </trkpt>
      <trkpt lat="47.08069" lon="4.95498">
        <ele>206.2</ele>
        <time>2020-03-12T15:43:40Z</time>
      </trkpt>
      <trkpt lat="47.08061" lon="4.9549">
        <ele>204.2</ele>
        <time>2020-03-12T15:43:49Z</time>
      </trkpt>
      <trkpt lat="47.08057" lon="4.95478">
        <ele>203.8</ele>
        <time>2020-03-12T15:43:57Z</time>
      </trkpt>
      <trkpt lat="47.08055" lon="4.95464">
        <ele>204.5</ele>
        <time>2020-03-12T15:44:04Z</time>
      </trkpt>
      <trkpt lat="47.08054" lon="4.9545">
        <ele>206.3</ele>
        <time>2020-03-12T15:44:11Z</time>
      </trkpt>
      <trkpt lat="47.08048" lon="4.95438">
        <ele>207.1</ele>
        <time>2020-03-12T15:44:19Z</time>
      </trkpt>
      <trkpt lat="47.08041" lon="4.95428">
        <ele>207.9</ele>
        <time>2020-03-12T15:44:26Z</time>
      </trkpt>
      <trkpt lat="47.08034" lon="4.95419">
        <ele>210.2</ele>
        <time>2020-03-12T15:44:34Z</time>
      </trkpt>
      <trkpt lat="47.08026" lon="4.95411">
        <ele>209.6</ele>
        <time>2020-03-12T15:45:01Z</time>
      </trkpt>
      <trkpt lat="47.08018" lon="4.95404">
        <ele>209.7</ele>
        <time>2020-03-12T15:45:34Z</time>
      </trkpt>
      <trkpt lat="47.08009" lon="4.95401">
        <ele>210.2</ele>
        <time>2020-03-12T15:45:44Z</time>
      </trkpt>
      <trkpt lat="47.08001" lon="4.95394">
        <ele>212.6</ele>
        <time>2020-03-12T15:45:54Z</time>
      </trkpt>
      <trkpt lat="47.07993" lon="4.95386">
        <ele>214.2</ele>
        <time>2020-03-12T15:46:00Z</time>
      </trkpt>
      <trkpt lat="47.07985" lon="4.95378">
        <ele>213.7</ele>
        <time>2020-03-12T15:46:07Z</time>
      </trkpt>
      <trkpt lat="47.07976" lon="4.95372">
        <ele>213.7</ele>
        <time>2020-03-12T15:46:15Z</time>
      </trkpt>
      <trkpt lat="47.07967" lon="4.95365">
        <ele>212.8</ele>
        <time>2020-03-12T15:46:23Z</time>
      </trkpt>
      <trkpt lat="47.07959" lon="4.95358">
        <ele>211.7</ele>
        <time>2020-03-12T15:46:32Z</time>
      </trkpt>
      <trkpt lat="47.0795" lon="4.95354">
        <ele>210.8</ele>
        <time>2020-03-12T15:46:41Z</time>
      </trkpt>
      <trkpt lat="47.07944" lon="4.95344">
        <ele>210.1</ele>
        <time>2020-03-12T15:47:06Z</time>
      </trkpt>
      <trkpt lat="47.07936" lon="4.95337">
        <ele>209.3</ele>
        <time>2020-03-12T15:47:14Z</time>
      </trkpt>
      <trkpt lat="47.07927" lon="4.9533">
        <ele>210.4</ele>
        <time>2020-03-12T15:47:22Z</time>
      </trkpt>
      <trkpt lat="47.07919" lon="4.95321">
        <ele>212.3</ele>
        <time>2020-03-12T15:47:29Z</time>
      </trkpt>
      <trkpt lat="47.07911" lon="4.95312">
        <ele>213.4</ele>
        <time>2020-03-12T15:47:35Z</time>
      </trkpt>
      <trkpt lat="47.07903" lon="4.95305">
        <ele>212.3</ele>
        <time>2020-03-12T15:47:43Z</time>
      </trkpt>
      <trkpt lat="47.07896" lon="4.95295">
        <ele>214.2</ele>
        <time>2020-03-12T15:47:52Z</time>
      </trkpt>
      <trkpt lat="47.07886" lon="4.95291">
        <ele>211</ele>
        <time>2020-03-12T15:48:02Z</time>
      </trkpt>
      <trkpt lat="47.07882" lon="4.95303">
        <ele>210.6</ele>
        <time>2020-03-12T15:48:46Z</time>
      </trkpt>
      <trkpt lat="47.07875" lon="4.95314">
        <ele>210.9</ele>
        <time>2020-03-12T15:48:55Z</time>
      </trkpt>
      <trkpt lat="47.07868" lon="4.95323">
        <ele>210.5</ele>
        <time>2020-03-12T15:49:03Z</time>
      </trkpt>
      <trkpt lat="47.0786" lon="4.95331">
        <ele>210.5</ele>
        <time>2020-03-12T15:49:11Z</time>
      </trkpt>
      <trkpt lat="47.0785" lon="4.95334">
        <ele>208.6</ele>
        <time>2020-03-12T15:49:18Z</time>
      </trkpt>
      <trkpt lat="47.07841" lon="4.9533">
        <ele>205.7</ele>
        <time>2020-03-12T15:49:26Z</time>
      </trkpt>
      <trkpt lat="47.07834" lon="4.95321">
        <ele>205.3</ele>
        <time>2020-03-12T15:49:34Z</time>
      </trkpt>
      <trkpt lat="47.0783" lon="4.95309">
        <ele>206.9</ele>
        <time>2020-03-12T15:49:41Z</time>
      </trkpt>
      <trkpt lat="47.07827" lon="4.95296">
        <ele>207.3</ele>
        <time>2020-03-12T15:49:48Z</time>
      </trkpt>
      <trkpt lat="47.07825" lon="4.95282">
        <ele>207.9</ele>
        <time>2020-03-12T15:49:54Z</time>
      </trkpt>
      <trkpt lat="47.07823" lon="4.95267">
        <ele>209.3</ele>
        <time>2020-03-12T15:50:01Z</time>
      </trkpt>
      <trkpt lat="47.07819" lon="4.95254">
        <ele>209.9</ele>
        <time>2020-03-12T15:50:09Z</time>
      </trkpt>
      <trkpt lat="47.07817" lon="4.9524">
        <ele>210.7</ele>
        <time>2020-03-12T15:50:17Z</time>
      </trkpt>
      <trkpt lat="47.07815" lon="4.95226">
        <ele>210.6</ele>
        <time>2020-03-12T15:50:26Z</time>
      </trkpt>
      <trkpt lat="47.07811" lon="4.95214">
        <ele>209.2</ele>
        <time>2020-03-12T15:50:35Z</time>
      </trkpt>
      <trkpt lat="47.07808" lon="4.952">
        <ele>208.9</ele>
        <time>2020-03-12T15:50:44Z</time>
      </trkpt>
      <trkpt lat="47.07808" lon="4.95187">
        <ele>210</ele>
        <time>2020-03-12T15:50:52Z</time>
      </trkpt>
      <trkpt lat="47.07805" lon="4.95174">
        <ele>210.5</ele>
        <time>2020-03-12T15:51:02Z</time>
      </trkpt>
      <trkpt lat="47.07807" lon="4.95171">
        <ele>210.5</ele>
        <time>2020-03-12T15:51:25Z</time>
      </trkpt>
    </trkseg>
  </trk>
</gpx>